PWSweather.com
Personal Weather Stations
Station Observations
DL5ARK
SonnebergDE

SonnebergDE

Lat: 50.34904861, Lon: 11.18112087

Elevation: 1214

Station Type: Selfmade

http://www.sumbarg.de

High Low Average
Temperature 46.5°F8.1°C 32.8°F0.4°C 41.4°F5.2°C
Dew Point 50.8°F10.4°C 37.0°F2.8°C 45.3°F7.4°C
Winds 10.5 mph 16.9 kmh Calm Calm 2.0 mph SW3.2 kmh SW
Wind Gusts 10.6 mph17.1 kmh -- 2.0 mph3.2 kmh
Humidity 93% 80% 88%
Pressure 29.93 in1013.5 mb 29.62 in1003.0 mb -
Precipitation 0.64 in16.3 mm - -
Hour Temp Dew Point Humidity Winds Wind Gusts Pressure Precip Precip Rate Daily Precip Total
12:02 AM 45.4°F7.4°C 50.0°F10.0°C 89% Calm Calm -- 29.80 in1009.1 mb 0.00 in0.0 mm 0.00 in0.0 mm 0.00 in0.0 mm
12:05 AM 45.4°F7.4°C 49.6°F9.8°C 89% Calm Calm -- 29.80 in1009.1 mb 0.00 in0.0 mm 0.00 in0.0 mm 0.00 in0.0 mm
12:08 AM 45.4°F7.4°C 49.9°F9.9°C 89% Calm Calm -- 29.80 in1009.1 mb 0.00 in0.0 mm 0.00 in0.0 mm 0.00 in0.0 mm
12:11 AM 45.5°F7.5°C 50.1°F10.1°C 90% Calm Calm -- 29.80 in1009.1 mb 0.00 in0.0 mm 0.00 in0.0 mm 0.00 in0.0 mm
12:14 AM 45.4°F7.4°C 50.0°F10.0°C 90% Calm Calm -- 29.80 in1009.1 mb 0.00 in0.0 mm 0.00 in0.0 mm 0.00 in0.0 mm
12:17 AM 45.5°F7.5°C 49.9°F9.9°C 90% Calm Calm -- 29.80 in1009.1 mb 0.00 in0.0 mm 0.00 in0.0 mm 0.00 in0.0 mm
12:20 AM 45.4°F7.4°C 50.0°F10.0°C 90% Calm Calm -- 29.79 in1008.8 mb 0.00 in0.0 mm 0.00 in0.0 mm 0.00 in0.0 mm
12:23 AM 45.4°F7.4°C 49.8°F9.9°C 89% Calm Calm -- 29.79 in1008.8 mb 0.00 in0.0 mm 0.00 in0.0 mm 0.00 in0.0 mm
12:26 AM 45.3°F7.4°C 49.8°F9.9°C 90% Calm Calm -- 29.79 in1008.8 mb 0.00 in0.0 mm 0.00 in0.0 mm 0.00 in0.0 mm
12:29 AM 45.3°F7.4°C 49.8°F9.9°C 90% Calm Calm -- 29.79 in1008.8 mb 0.00 in0.0 mm 0.00 in0.0 mm 0.00 in0.0 mm
12:32 AM 45.3°F7.4°C 49.8°F9.9°C 90% Calm Calm -- 29.79 in1008.8 mb 0.00 in0.0 mm 0.00 in0.0 mm 0.00 in0.0 mm
12:35 AM 45.4°F7.4°C 49.8°F9.9°C 90% Calm Calm -- 29.79 in1008.8 mb 0.00 in0.0 mm 0.00 in0.0 mm 0.00 in0.0 mm
12:38 AM 45.5°F7.5°C 49.9°F9.9°C 90% Calm Calm -- 29.79 in1008.8 mb 0.00 in0.0 mm 0.00 in0.0 mm 0.00 in0.0 mm
12:41 AM 45.4°F7.4°C 49.7°F9.8°C 90% Calm Calm -- 29.79 in1008.8 mb 0.00 in0.0 mm 0.00 in0.0 mm 0.00 in0.0 mm
12:44 AM 45.4°F7.4°C 49.7°F9.8°C 89% Calm Calm -- 29.79 in1008.8 mb 0.00 in0.0 mm 0.00 in0.0 mm 0.00 in0.0 mm
12:47 AM 45.4°F7.4°C 50.1°F10.1°C 90% Calm Calm -- 29.79 in1008.8 mb 0.00 in0.0 mm 0.00 in0.0 mm 0.00 in0.0 mm
12:50 AM 45.5°F7.5°C 49.9°F9.9°C 90% Calm Calm -- 29.79 in1008.8 mb 0.00 in0.0 mm 0.00 in0.0 mm 0.02 in0.5 mm
12:53 AM 45.4°F7.4°C 49.9°F9.9°C 90% Calm Calm -- 29.79 in1008.8 mb 0.00 in0.0 mm 0.00 in0.0 mm 0.02 in0.5 mm
12:56 AM 45.5°F7.5°C 49.8°F9.9°C 90% Calm Calm -- 29.79 in1008.8 mb 0.00 in0.0 mm 0.00 in0.0 mm 0.02 in0.5 mm
12:59 AM 45.4°F7.4°C 49.9°F9.9°C 90% Calm Calm -- 29.79 in1008.8 mb 0.00 in0.0 mm 0.00 in0.0 mm 0.02 in0.5 mm
01:02 AM 45.4°F7.4°C 49.9°F9.9°C 90% Calm Calm -- 29.78 in1008.5 mb 0.00 in0.0 mm 0.00 in0.0 mm 0.02 in0.5 mm
01:05 AM 45.4°F7.4°C 49.9°F9.9°C 90% Calm Calm -- 29.78 in1008.5 mb 0.00 in0.0 mm 0.00 in0.0 mm 0.02 in0.5 mm
01:11 AM 45.3°F7.4°C 49.9°F9.9°C 91% Calm Calm -- 29.77 in1008.1 mb 0.00 in0.0 mm 0.00 in0.0 mm 0.02 in0.5 mm
01:14 AM 45.4°F7.4°C 49.8°F9.9°C 91% Calm Calm -- 29.77 in1008.1 mb 0.00 in0.0 mm 0.00 in0.0 mm 0.02 in0.5 mm
01:17 AM 45.4°F7.4°C 50.0°F10.0°C 90% Calm Calm -- 29.77 in1008.1 mb 0.00 in0.0 mm 0.00 in0.0 mm 0.02 in0.5 mm
01:20 AM 45.4°F7.4°C 50.0°F10.0°C 91% Calm Calm -- 29.77 in1008.1 mb 0.00 in0.0 mm 0.00 in0.0 mm 0.02 in0.5 mm
01:23 AM 45.5°F7.5°C 50.0°F10.0°C 91% Calm Calm -- 29.77 in1008.1 mb 0.00 in0.0 mm 0.00 in0.0 mm 0.02 in0.5 mm
01:26 AM 45.4°F7.4°C 50.1°F10.1°C 90% Calm Calm -- 29.77 in1008.1 mb 0.00 in0.0 mm 0.00 in0.0 mm 0.02 in0.5 mm
01:29 AM 45.4°F7.4°C 50.0°F10.0°C 91% Calm Calm -- 29.77 in1008.1 mb 0.00 in0.0 mm 0.00 in0.0 mm 0.02 in0.5 mm
01:32 AM 45.5°F7.5°C 49.7°F9.8°C 90% Calm Calm -- 29.77 in1008.1 mb 0.00 in0.0 mm 0.00 in0.0 mm 0.02 in0.5 mm
01:35 AM 45.5°F7.5°C 49.9°F9.9°C 91% Calm Calm -- 29.77 in1008.1 mb 0.00 in0.0 mm 0.00 in0.0 mm 0.02 in0.5 mm
01:38 AM 45.4°F7.4°C 49.9°F9.9°C 91% Calm Calm -- 29.77 in1008.1 mb 0.00 in0.0 mm 0.00 in0.0 mm 0.02 in0.5 mm
01:41 AM 45.5°F7.5°C 49.9°F9.9°C 90% Calm Calm -- 29.77 in1008.1 mb 0.00 in0.0 mm 0.00 in0.0 mm 0.02 in0.5 mm
01:44 AM 45.4°F7.4°C 49.6°F9.8°C 90% Calm Calm -- 29.77 in1008.1 mb 0.00 in0.0 mm 0.00 in0.0 mm 0.02 in0.5 mm
01:47 AM 45.5°F7.5°C 50.2°F10.1°C 91% Calm Calm -- 29.77 in1008.1 mb 0.00 in0.0 mm 0.00 in0.0 mm 0.04 in1.0 mm
01:50 AM 45.5°F7.5°C 49.9°F9.9°C 91% Calm Calm -- 29.77 in1008.1 mb 0.00 in0.0 mm 0.00 in0.0 mm 0.04 in1.0 mm
01:53 AM 45.5°F7.5°C 49.8°F9.9°C 90% Calm Calm -- 29.77 in1008.1 mb 0.00 in0.0 mm 0.00 in0.0 mm 0.04 in1.0 mm
01:56 AM 45.6°F7.6°C 50.1°F10.1°C 91% Calm Calm -- 29.77 in1008.1 mb 0.00 in0.0 mm 0.00 in0.0 mm 0.04 in1.0 mm
01:59 AM 45.6°F7.6°C 50.0°F10.0°C 90% Calm Calm -- 29.77 in1008.1 mb 0.00 in0.0 mm 0.00 in0.0 mm 0.06 in1.5 mm
02:05 AM 45.6°F7.6°C 50.1°F10.1°C 91% 0.8 mph NNW1.3 kmh NNW 0.8 mph1.3 kmh 29.76 in1007.8 mb 0.00 in0.0 mm 0.00 in0.0 mm 0.06 in1.5 mm
02:08 AM 45.6°F7.6°C 50.2°F10.1°C 92% Calm Calm -- 29.76 in1007.8 mb 0.00 in0.0 mm 0.00 in0.0 mm 0.06 in1.5 mm
02:11 AM 45.6°F7.6°C 50.1°F10.1°C 91% Calm Calm -- 29.76 in1007.8 mb 0.00 in0.0 mm 0.00 in0.0 mm 0.06 in1.5 mm
02:14 AM 45.6°F7.6°C 50.1°F10.1°C 92% Calm Calm -- 29.76 in1007.8 mb 0.00 in0.0 mm 0.00 in0.0 mm 0.06 in1.5 mm
02:17 AM 45.6°F7.6°C 50.0°F10.0°C 91% Calm Calm -- 29.76 in1007.8 mb 0.00 in0.0 mm 0.00 in0.0 mm 0.06 in1.5 mm
02:20 AM 45.6°F7.6°C 50.1°F10.1°C 91% Calm Calm -- 29.76 in1007.8 mb 0.00 in0.0 mm 0.00 in0.0 mm 0.08 in2.0 mm
02:23 AM 45.6°F7.6°C 49.9°F9.9°C 91% 1.2 mph SE1.9 kmh SE 1.2 mph1.9 kmh 29.76 in1007.8 mb 0.00 in0.0 mm 0.00 in0.0 mm 0.08 in2.0 mm
02:26 AM 45.6°F7.6°C 50.0°F10.0°C 92% Calm Calm -- 29.76 in1007.8 mb 0.00 in0.0 mm 0.00 in0.0 mm 0.08 in2.0 mm
02:29 AM 45.6°F7.6°C 50.1°F10.1°C 91% Calm Calm -- 29.76 in1007.8 mb 0.00 in0.0 mm 0.00 in0.0 mm 0.08 in2.0 mm
02:32 AM 45.7°F7.6°C 50.0°F10.0°C 92% 1.1 mph SSE1.8 kmh SSE 1.2 mph1.9 kmh 29.75 in1007.5 mb 0.00 in0.0 mm 0.00 in0.0 mm 0.08 in2.0 mm
02:35 AM 45.7°F7.6°C 50.2°F10.1°C 92% 0.4 mph SE0.6 kmh SE 0.4 mph0.6 kmh 29.75 in1007.5 mb 0.00 in0.0 mm 0.00 in0.0 mm 0.08 in2.0 mm
02:38 AM 45.7°F7.6°C 50.5°F10.3°C 92% 1.6 mph SSE2.6 kmh SSE 1.6 mph2.6 kmh 29.75 in1007.5 mb 0.00 in0.0 mm 0.00 in0.0 mm 0.08 in2.0 mm
02:41 AM 45.7°F7.6°C 50.3°F10.2°C 93% 0.8 mph SE1.3 kmh SE 0.8 mph1.3 kmh 29.74 in1007.1 mb 0.00 in0.0 mm 0.00 in0.0 mm 0.08 in2.0 mm
02:44 AM 45.8°F7.7°C 50.2°F10.1°C 92% Calm Calm -- 29.74 in1007.1 mb 0.00 in0.0 mm 0.00 in0.0 mm 0.08 in2.0 mm
02:47 AM 45.8°F7.7°C 50.3°F10.2°C 92% Calm Calm -- 29.74 in1007.1 mb 0.00 in0.0 mm 0.00 in0.0 mm 0.08 in2.0 mm
02:50 AM 45.8°F7.7°C 50.3°F10.2°C 92% Calm Calm -- 29.74 in1007.1 mb 0.00 in0.0 mm 0.00 in0.0 mm 0.08 in2.0 mm
02:53 AM 45.8°F7.7°C 50.2°F10.1°C 92% Calm Calm -- 29.74 in1007.1 mb 0.00 in0.0 mm 0.00 in0.0 mm 0.08 in2.0 mm
02:56 AM 45.8°F7.7°C 50.3°F10.2°C 92% 0.4 mph S0.6 kmh S 0.4 mph0.6 kmh 29.74 in1007.1 mb 0.00 in0.0 mm 0.00 in0.0 mm 0.08 in2.0 mm
02:59 AM 45.8°F7.7°C 50.0°F10.0°C 92% Calm Calm -- 29.74 in1007.1 mb 0.00 in0.0 mm 0.00 in0.0 mm 0.08 in2.0 mm
03:02 AM 45.8°F7.7°C 50.3°F10.2°C 92% 1.6 mph SSW2.6 kmh SSW 1.6 mph2.6 kmh 29.73 in1006.8 mb 0.00 in0.0 mm 0.00 in0.0 mm 0.08 in2.0 mm
03:05 AM 46.1°F7.8°C 50.2°F10.1°C 92% 0.8 mph NNW1.3 kmh NNW 0.8 mph1.3 kmh 29.73 in1006.8 mb 0.00 in0.0 mm 0.00 in0.0 mm 0.08 in2.0 mm
03:08 AM 46.2°F7.9°C 50.4°F10.2°C 92% 2.7 mph SW4.3 kmh SW 2.7 mph4.3 kmh 29.73 in1006.8 mb 0.00 in0.0 mm 0.00 in0.0 mm 0.08 in2.0 mm
03:11 AM 46.2°F7.9°C 50.5°F10.3°C 93% 2.8 mph WSW4.5 kmh WSW 2.8 mph4.5 kmh 29.73 in1006.8 mb 0.00 in0.0 mm 0.00 in0.0 mm 0.08 in2.0 mm
03:14 AM 46.3°F7.9°C 50.4°F10.2°C 92% Calm Calm -- 29.73 in1006.8 mb 0.00 in0.0 mm 0.00 in0.0 mm 0.08 in2.0 mm
03:17 AM 46.3°F7.9°C 50.4°F10.2°C 92% 0.8 mph SW1.3 kmh SW 0.8 mph1.3 kmh 29.72 in1006.4 mb 0.00 in0.0 mm 0.00 in0.0 mm 0.08 in2.0 mm
03:20 AM 46.3°F7.9°C 50.8°F10.4°C 93% 0.8 mph NNW1.3 kmh NNW 0.8 mph1.3 kmh 29.72 in1006.4 mb 0.00 in0.0 mm 0.00 in0.0 mm 0.08 in2.0 mm
03:23 AM 46.3°F7.9°C 50.4°F10.2°C 92% 1.6 mph NNW2.6 kmh NNW 1.6 mph2.6 kmh 29.72 in1006.4 mb 0.00 in0.0 mm 0.00 in0.0 mm 0.08 in2.0 mm
03:29 AM 46.4°F8.0°C 50.6°F10.3°C 92% 2.8 mph SW4.5 kmh SW 2.9 mph4.7 kmh 29.72 in1006.4 mb 0.00 in0.0 mm 0.00 in0.0 mm 0.08 in2.0 mm
03:32 AM 46.5°F8.1°C 50.5°F10.3°C 92% 3.2 mph SW5.1 kmh SW 3.2 mph5.1 kmh 29.72 in1006.4 mb 0.00 in0.0 mm 0.00 in0.0 mm 0.08 in2.0 mm
03:35 AM 46.4°F8.0°C 50.6°F10.3°C 92% 2.4 mph NNW3.9 kmh NNW 2.4 mph3.9 kmh 29.72 in1006.4 mb 0.00 in0.0 mm 0.00 in0.0 mm 0.08 in2.0 mm
03:38 AM 46.4°F8.0°C 50.5°F10.3°C 92% 2.8 mph NNW4.5 kmh NNW 2.9 mph4.7 kmh 29.72 in1006.4 mb 0.00 in0.0 mm 0.00 in0.0 mm 0.08 in2.0 mm
03:41 AM 46.4°F8.0°C 50.4°F10.2°C 92% 2.4 mph W3.9 kmh W 2.4 mph3.9 kmh 29.72 in1006.4 mb 0.00 in0.0 mm 0.00 in0.0 mm 0.08 in2.0 mm
03:44 AM 46.4°F8.0°C 50.5°F10.3°C 92% 3.5 mph WSW5.6 kmh WSW 3.5 mph5.6 kmh 29.72 in1006.4 mb 0.00 in0.0 mm 0.00 in0.0 mm 0.08 in2.0 mm
03:47 AM 46.4°F8.0°C 50.8°F10.4°C 93% 1.6 mph SW2.6 kmh SW 1.6 mph2.6 kmh 29.72 in1006.4 mb 0.00 in0.0 mm 0.00 in0.0 mm 0.08 in2.0 mm
03:50 AM 46.4°F8.0°C 50.5°F10.3°C 92% 2.8 mph NNW4.5 kmh NNW 2.8 mph4.5 kmh 29.71 in1006.1 mb 0.00 in0.0 mm 0.00 in0.0 mm 0.08 in2.0 mm
03:53 AM 46.4°F8.0°C 50.8°F10.4°C 92% Calm Calm -- 29.72 in1006.4 mb 0.00 in0.0 mm 0.00 in0.0 mm 0.08 in2.0 mm
03:56 AM 46.4°F8.0°C 50.7°F10.4°C 92% 0.4 mph NW0.6 kmh NW 0.4 mph0.6 kmh 29.71 in1006.1 mb 0.00 in0.0 mm 0.00 in0.0 mm 0.08 in2.0 mm
03:59 AM 46.4°F8.0°C 50.5°F10.3°C 92% 1.2 mph WNW1.9 kmh WNW 1.2 mph1.9 kmh 29.71 in1006.1 mb 0.00 in0.0 mm 0.00 in0.0 mm 0.08 in2.0 mm
04:02 AM 46.4°F8.0°C 50.4°F10.2°C 92% Calm Calm -- 29.70 in1005.8 mb 0.00 in0.0 mm 0.00 in0.0 mm 0.08 in2.0 mm
04:05 AM 46.3°F7.9°C 50.8°F10.4°C 92% Calm Calm -- 29.70 in1005.8 mb 0.00 in0.0 mm 0.00 in0.0 mm 0.08 in2.0 mm
04:08 AM 46.3°F7.9°C 50.5°F10.3°C 92% 1.2 mph SW1.9 kmh SW 1.2 mph1.9 kmh 29.71 in1006.1 mb 0.00 in0.0 mm 0.00 in0.0 mm 0.08 in2.0 mm
04:14 AM 46.3°F7.9°C 50.7°F10.4°C 92% 0.8 mph W1.3 kmh W 0.8 mph1.3 kmh 29.70 in1005.8 mb 0.00 in0.0 mm 0.00 in0.0 mm 0.08 in2.0 mm
04:17 AM 46.4°F8.0°C 50.6°F10.3°C 92% 3.2 mph W5.1 kmh W 3.2 mph5.1 kmh 29.70 in1005.8 mb 0.00 in0.0 mm 0.00 in0.0 mm 0.08 in2.0 mm
04:20 AM 46.4°F8.0°C 50.5°F10.3°C 92% Calm Calm -- 29.69 in1005.4 mb 0.00 in0.0 mm 0.00 in0.0 mm 0.08 in2.0 mm
04:23 AM 46.4°F8.0°C 50.6°F10.3°C 92% Calm Calm -- 29.69 in1005.4 mb 0.00 in0.0 mm 0.00 in0.0 mm 0.08 in2.0 mm
04:26 AM 46.4°F8.0°C 50.5°F10.3°C 92% Calm Calm -- 29.69 in1005.4 mb 0.00 in0.0 mm 0.00 in0.0 mm 0.08 in2.0 mm
04:29 AM 46.4°F8.0°C 50.5°F10.3°C 92% 0.4 mph NW0.6 kmh NW 0.4 mph0.6 kmh 29.69 in1005.4 mb 0.00 in0.0 mm 0.00 in0.0 mm 0.08 in2.0 mm
04:32 AM 46.3°F7.9°C 50.6°F10.3°C 92% 0.4 mph W0.6 kmh W 0.4 mph0.6 kmh 29.69 in1005.4 mb 0.00 in0.0 mm 0.00 in0.0 mm 0.08 in2.0 mm
04:35 AM 46.4°F8.0°C 50.5°F10.3°C 91% Calm Calm -- 29.69 in1005.4 mb 0.00 in0.0 mm 0.00 in0.0 mm 0.08 in2.0 mm
04:38 AM 46.2°F7.9°C 50.4°F10.2°C 92% Calm Calm -- 29.69 in1005.4 mb 0.00 in0.0 mm 0.00 in0.0 mm 0.08 in2.0 mm
04:41 AM 46.2°F7.9°C 50.8°F10.4°C 92% Calm Calm -- 29.68 in1005.1 mb 0.00 in0.0 mm 0.00 in0.0 mm 0.08 in2.0 mm
04:44 AM 46.1°F7.8°C 50.3°F10.2°C 91% 0.4 mph SE0.6 kmh SE 0.4 mph0.6 kmh 29.67 in1004.7 mb 0.00 in0.0 mm 0.00 in0.0 mm 0.08 in2.0 mm
04:47 AM 46.0°F7.8°C 50.7°F10.4°C 92% Calm Calm -- 29.67 in1004.7 mb 0.00 in0.0 mm 0.00 in0.0 mm 0.08 in2.0 mm
04:50 AM 46.0°F7.8°C 50.2°F10.1°C 91% Calm Calm -- 29.67 in1004.7 mb 0.00 in0.0 mm 0.00 in0.0 mm 0.08 in2.0 mm
04:53 AM 45.8°F7.7°C 50.4°F10.2°C 92% Calm Calm -- 29.67 in1004.7 mb 0.00 in0.0 mm 0.00 in0.0 mm 0.08 in2.0 mm
04:56 AM 45.8°F7.7°C 50.3°F10.2°C 92% Calm Calm -- 29.67 in1004.7 mb 0.00 in0.0 mm 0.00 in0.0 mm 0.08 in2.0 mm
04:59 AM 45.6°F7.6°C 50.4°F10.2°C 91% Calm Calm -- 29.67 in1004.7 mb 0.00 in0.0 mm 0.00 in0.0 mm 0.08 in2.0 mm
05:02 AM 45.8°F7.7°C 50.3°F10.2°C 91% 0.4 mph NNE0.6 kmh NNE 0.4 mph0.6 kmh 29.67 in1004.7 mb 0.00 in0.0 mm 0.00 in0.0 mm 0.08 in2.0 mm
05:05 AM 45.8°F7.7°C 50.2°F10.1°C 91% 1.2 mph NNW1.9 kmh NNW 1.2 mph1.9 kmh 29.67 in1004.7 mb 0.00 in0.0 mm 0.00 in0.0 mm 0.08 in2.0 mm
05:08 AM 45.8°F7.7°C 50.3°F10.2°C 91% Calm Calm -- 29.67 in1004.7 mb 0.00 in0.0 mm 0.00 in0.0 mm 0.08 in2.0 mm
05:11 AM 45.8°F7.7°C 49.9°F9.9°C 91% Calm Calm -- 29.67 in1004.7 mb 0.00 in0.0 mm 0.00 in0.0 mm 0.08 in2.0 mm
05:14 AM 45.7°F7.6°C 50.1°F10.1°C 91% Calm Calm -- 29.67 in1004.7 mb 0.00 in0.0 mm 0.00 in0.0 mm 0.08 in2.0 mm
05:17 AM 45.6°F7.6°C 50.2°F10.1°C 91% Calm Calm -- 29.67 in1004.7 mb 0.00 in0.0 mm 0.00 in0.0 mm 0.08 in2.0 mm
05:20 AM 45.6°F7.6°C 50.3°F10.2°C 91% Calm Calm -- 29.67 in1004.7 mb 0.00 in0.0 mm 0.00 in0.0 mm 0.08 in2.0 mm
05:23 AM 45.6°F7.6°C 50.2°F10.1°C 91% Calm Calm -- 29.67 in1004.7 mb 0.00 in0.0 mm 0.00 in0.0 mm 0.08 in2.0 mm
05:26 AM 45.6°F7.6°C 50.2°F10.1°C 91% Calm Calm -- 29.67 in1004.7 mb 0.00 in0.0 mm 0.00 in0.0 mm 0.10 in2.5 mm
05:29 AM 45.5°F7.5°C 50.1°F10.1°C 91% Calm Calm -- 29.67 in1004.7 mb 0.00 in0.0 mm 0.00 in0.0 mm 0.10 in2.5 mm
05:32 AM 45.7°F7.6°C 50.2°F10.1°C 91% 2.0 mph NW3.2 kmh NW 2.0 mph3.2 kmh 29.67 in1004.7 mb 0.00 in0.0 mm 0.00 in0.0 mm 0.10 in2.5 mm
05:35 AM 46.0°F7.8°C 50.3°F10.2°C 91% 1.2 mph WSW1.9 kmh WSW 1.2 mph1.9 kmh 29.67 in1004.7 mb 0.00 in0.0 mm 0.00 in0.0 mm 0.10 in2.5 mm
05:38 AM 46.0°F7.8°C 50.1°F10.1°C 92% 0.8 mph NNW1.3 kmh NNW 0.8 mph1.3 kmh 29.66 in1004.4 mb 0.00 in0.0 mm 0.00 in0.0 mm 0.10 in2.5 mm
05:41 AM 45.8°F7.7°C 50.3°F10.2°C 92% 0.8 mph W1.3 kmh W 0.8 mph1.3 kmh 29.66 in1004.4 mb 0.00 in0.0 mm 0.00 in0.0 mm 0.12 in3.0 mm
05:44 AM 45.8°F7.7°C 50.2°F10.1°C 92% Calm Calm -- 29.66 in1004.4 mb 0.00 in0.0 mm 0.00 in0.0 mm 0.12 in3.0 mm
05:47 AM 46.0°F7.8°C 50.2°F10.1°C 92% 1.2 mph WSW1.9 kmh WSW 1.2 mph1.9 kmh 29.66 in1004.4 mb 0.00 in0.0 mm 0.00 in0.0 mm 0.12 in3.0 mm
05:50 AM 46.0°F7.8°C 50.5°F10.3°C 92% 1.2 mph WSW1.9 kmh WSW 1.2 mph1.9 kmh 29.66 in1004.4 mb 0.00 in0.0 mm 0.00 in0.0 mm 0.12 in3.0 mm
05:56 AM 45.8°F7.7°C 50.3°F10.2°C 92% Calm Calm -- 29.65 in1004.1 mb 0.00 in0.0 mm 0.00 in0.0 mm 0.14 in3.6 mm
05:59 AM 45.8°F7.7°C 49.9°F9.9°C 90% 1.6 mph W2.6 kmh W 1.6 mph2.6 kmh 29.65 in1004.1 mb 0.00 in0.0 mm 0.00 in0.0 mm 0.14 in3.6 mm
06:02 AM 45.8°F7.7°C 50.3°F10.2°C 92% 1.6 mph W2.6 kmh W 1.6 mph2.6 kmh 29.65 in1004.1 mb 0.00 in0.0 mm 0.00 in0.0 mm 0.14 in3.6 mm
06:08 AM 45.8°F7.7°C 50.2°F10.1°C 92% 2.8 mph W4.5 kmh W 2.8 mph4.5 kmh 29.65 in1004.1 mb 0.00 in0.0 mm 0.00 in0.0 mm 0.16 in4.1 mm
06:11 AM 45.7°F7.6°C 50.0°F10.0°C 92% 3.3 mph NNW5.3 kmh NNW 3.3 mph5.3 kmh 29.64 in1003.7 mb 0.00 in0.0 mm 0.00 in0.0 mm 0.16 in4.1 mm
06:14 AM 45.7°F7.6°C 50.1°F10.1°C 92% 1.2 mph NNW1.9 kmh NNW 1.2 mph1.9 kmh 29.64 in1003.7 mb 0.00 in0.0 mm 0.00 in0.0 mm 0.16 in4.1 mm
06:17 AM 45.8°F7.7°C 50.1°F10.1°C 92% 2.8 mph SW4.5 kmh SW 2.8 mph4.5 kmh 29.64 in1003.7 mb 0.00 in0.0 mm 0.00 in0.0 mm 0.16 in4.1 mm
06:20 AM 45.7°F7.6°C 50.3°F10.2°C 92% 2.0 mph SSW3.2 kmh SSW 2.0 mph3.2 kmh 29.64 in1003.7 mb 0.00 in0.0 mm 0.00 in0.0 mm 0.16 in4.1 mm
06:23 AM 45.7°F7.6°C 50.1°F10.1°C 92% 0.8 mph NNW1.3 kmh NNW 0.8 mph1.3 kmh 29.64 in1003.7 mb 0.00 in0.0 mm 0.00 in0.0 mm 0.18 in4.6 mm
06:29 AM 45.7°F7.6°C 50.3°F10.2°C 92% 3.2 mph SW5.1 kmh SW 3.2 mph5.1 kmh 29.64 in1003.7 mb 0.00 in0.0 mm 0.00 in0.0 mm 0.18 in4.6 mm
06:32 AM 45.8°F7.7°C 50.1°F10.1°C 92% 2.4 mph SW3.9 kmh SW 2.4 mph3.9 kmh 29.64 in1003.7 mb 0.00 in0.0 mm 0.00 in0.0 mm 0.18 in4.6 mm
06:35 AM 45.7°F7.6°C 50.2°F10.1°C 92% 3.2 mph WSW5.1 kmh WSW 3.3 mph5.3 kmh 29.64 in1003.7 mb 0.00 in0.0 mm 0.00 in0.0 mm 0.20 in5.1 mm
06:41 AM 45.7°F7.6°C 50.2°F10.1°C 92% 0.4 mph WSW0.6 kmh WSW 0.4 mph0.6 kmh 29.64 in1003.7 mb 0.00 in0.0 mm 0.00 in0.0 mm 0.20 in5.1 mm
06:44 AM 45.6°F7.6°C 49.9°F9.9°C 92% 1.2 mph W1.9 kmh W 1.2 mph1.9 kmh 29.64 in1003.7 mb 0.00 in0.0 mm 0.00 in0.0 mm 0.20 in5.1 mm
06:47 AM 45.6°F7.6°C 50.1°F10.1°C 92% 0.4 mph WSW0.6 kmh WSW 0.4 mph0.6 kmh 29.64 in1003.7 mb 0.00 in0.0 mm 0.00 in0.0 mm 0.22 in5.6 mm
06:50 AM 45.6°F7.6°C 49.9°F9.9°C 91% Calm Calm -- 29.64 in1003.7 mb 0.00 in0.0 mm 0.00 in0.0 mm 0.22 in5.6 mm
06:51 AM 45.6°F7.6°C 50.3°F10.2°C 92% 0.4 mph SW0.6 kmh SW 0.4 mph0.6 kmh 29.64 in1003.7 mb 0.00 in0.0 mm 0.00 in0.0 mm 0.22 in5.6 mm
06:54 AM 45.5°F7.5°C 50.1°F10.1°C 92% 2.0 mph NNW3.2 kmh NNW 2.0 mph3.2 kmh 29.64 in1003.7 mb 0.00 in0.0 mm 0.00 in0.0 mm 0.22 in5.6 mm
06:57 AM 45.6°F7.6°C 49.7°F9.8°C 91% Calm Calm -- 29.64 in1003.7 mb 0.00 in0.0 mm 0.00 in0.0 mm 0.24 in6.1 mm
07:03 AM 45.5°F7.5°C 49.8°F9.9°C 92% 3.6 mph SW5.8 kmh SW 3.7 mph6.0 kmh 29.64 in1003.7 mb 0.00 in0.0 mm 0.00 in0.0 mm 0.24 in6.1 mm
07:06 AM 45.4°F7.4°C 50.0°F10.0°C 92% 2.8 mph SW4.5 kmh SW 2.8 mph4.5 kmh 29.64 in1003.7 mb 0.00 in0.0 mm 0.00 in0.0 mm 0.24 in6.1 mm
07:09 AM 45.4°F7.4°C 49.8°F9.9°C 92% 3.2 mph SW5.1 kmh SW 3.3 mph5.3 kmh 29.64 in1003.7 mb 0.00 in0.0 mm 0.00 in0.0 mm 0.26 in6.6 mm
07:12 AM 45.4°F7.4°C 49.9°F9.9°C 92% 1.2 mph SW1.9 kmh SW 1.2 mph1.9 kmh 29.64 in1003.7 mb 0.00 in0.0 mm 0.00 in0.0 mm 0.26 in6.6 mm
07:15 AM 45.4°F7.4°C 49.7°F9.8°C 92% 2.0 mph SW3.2 kmh SW 2.0 mph3.2 kmh 29.64 in1003.7 mb 0.00 in0.0 mm 0.00 in0.0 mm 0.26 in6.6 mm
07:18 AM 45.3°F7.4°C 49.8°F9.9°C 92% 4.8 mph W7.7 kmh W 4.9 mph7.9 kmh 29.64 in1003.7 mb 0.00 in0.0 mm 0.00 in0.0 mm 0.26 in6.6 mm
07:21 AM 45.3°F7.4°C 49.7°F9.8°C 92% 2.8 mph WSW4.5 kmh WSW 2.8 mph4.5 kmh 29.63 in1003.4 mb 0.00 in0.0 mm 0.00 in0.0 mm 0.26 in6.6 mm
07:24 AM 45.3°F7.4°C 49.6°F9.8°C 92% 2.4 mph SW3.9 kmh SW 2.4 mph3.9 kmh 29.63 in1003.4 mb 0.00 in0.0 mm 0.00 in0.0 mm 0.28 in7.1 mm
07:27 AM 45.2°F7.3°C 49.6°F9.8°C 92% 1.6 mph SW2.6 kmh SW 1.6 mph2.6 kmh 29.63 in1003.4 mb 0.00 in0.0 mm 0.00 in0.0 mm 0.28 in7.1 mm
07:30 AM 45.2°F7.3°C 49.4°F9.7°C 91% 4.0 mph SW6.4 kmh SW 4.1 mph6.6 kmh 29.63 in1003.4 mb 0.00 in0.0 mm 0.00 in0.0 mm 0.28 in7.1 mm
07:33 AM 45.1°F7.3°C 49.3°F9.6°C 91% 2.8 mph NNW4.5 kmh NNW 2.8 mph4.5 kmh 29.63 in1003.4 mb 0.00 in0.0 mm 0.00 in0.0 mm 0.28 in7.1 mm
07:36 AM 45.1°F7.3°C 49.3°F9.6°C 91% 3.2 mph SW5.1 kmh SW 3.3 mph5.3 kmh 29.63 in1003.4 mb 0.00 in0.0 mm 0.00 in0.0 mm 0.28 in7.1 mm
07:39 AM 44.9°F7.2°C 49.4°F9.7°C 92% 0.8 mph SW1.3 kmh SW 0.8 mph1.3 kmh 29.63 in1003.4 mb 0.00 in0.0 mm 0.00 in0.0 mm 0.28 in7.1 mm
07:42 AM 44.9°F7.2°C 49.5°F9.7°C 92% 1.6 mph SW2.6 kmh SW 1.6 mph2.6 kmh 29.63 in1003.4 mb 0.00 in0.0 mm 0.00 in0.0 mm 0.28 in7.1 mm
07:45 AM 44.9°F7.2°C 49.3°F9.6°C 91% 0.4 mph NNW0.6 kmh NNW 0.4 mph0.6 kmh 29.62 in1003.0 mb 0.00 in0.0 mm 0.00 in0.0 mm 0.30 in7.6 mm
07:48 AM 44.8°F7.1°C 49.3°F9.6°C 91% 1.6 mph SW2.6 kmh SW 1.6 mph2.6 kmh 29.62 in1003.0 mb 0.00 in0.0 mm 0.00 in0.0 mm 0.30 in7.6 mm
07:51 AM 44.8°F7.1°C 49.4°F9.7°C 91% Calm Calm -- 29.62 in1003.0 mb 0.00 in0.0 mm 0.00 in0.0 mm 0.30 in7.6 mm
07:54 AM 44.7°F7.1°C 49.0°F9.4°C 90% Calm Calm -- 29.62 in1003.0 mb 0.00 in0.0 mm 0.00 in0.0 mm 0.30 in7.6 mm
07:57 AM 44.6°F7.0°C 49.3°F9.6°C 91% 1.2 mph SW1.9 kmh SW 1.2 mph1.9 kmh 29.62 in1003.0 mb 0.00 in0.0 mm 0.00 in0.0 mm 0.30 in7.6 mm
08:00 AM 44.6°F7.0°C 49.1°F9.5°C 91% Calm Calm -- 29.62 in1003.0 mb 0.00 in0.0 mm 0.00 in0.0 mm 0.30 in7.6 mm
08:03 AM 44.6°F7.0°C 49.4°F9.7°C 91% 0.8 mph NNW1.3 kmh NNW 0.8 mph1.3 kmh 29.62 in1003.0 mb 0.00 in0.0 mm 0.00 in0.0 mm 0.30 in7.6 mm
08:06 AM 44.6°F7.0°C 48.8°F9.3°C 90% Calm Calm -- 29.62 in1003.0 mb 0.00 in0.0 mm 0.00 in0.0 mm 0.30 in7.6 mm
08:09 AM 44.5°F6.9°C 49.2°F9.6°C 91% 2.0 mph WSW3.2 kmh WSW 2.0 mph3.2 kmh 29.62 in1003.0 mb 0.00 in0.0 mm 0.00 in0.0 mm 0.32 in8.1 mm
08:12 AM 44.6°F7.0°C 49.1°F9.5°C 91% Calm Calm -- 29.62 in1003.0 mb 0.00 in0.0 mm 0.00 in0.0 mm 0.32 in8.1 mm
08:15 AM 44.5°F6.9°C 49.2°F9.6°C 91% Calm Calm -- 29.62 in1003.0 mb 0.00 in0.0 mm 0.00 in0.0 mm 0.32 in8.1 mm
08:18 AM 44.5°F6.9°C 49.2°F9.6°C 91% Calm Calm -- 29.62 in1003.0 mb 0.00 in0.0 mm 0.00 in0.0 mm 0.32 in8.1 mm
08:21 AM 44.6°F7.0°C 49.3°F9.6°C 91% Calm Calm -- 29.62 in1003.0 mb 0.00 in0.0 mm 0.00 in0.0 mm 0.32 in8.1 mm
08:24 AM 44.6°F7.0°C 49.1°F9.5°C 91% 0.4 mph SW0.6 kmh SW 0.4 mph0.6 kmh 29.62 in1003.0 mb 0.00 in0.0 mm 0.00 in0.0 mm 0.34 in8.6 mm
08:27 AM 44.6°F7.0°C 49.1°F9.5°C 91% Calm Calm -- 29.62 in1003.0 mb 0.00 in0.0 mm 0.00 in0.0 mm 0.34 in8.6 mm
08:30 AM 44.6°F7.0°C 49.2°F9.6°C 91% 2.0 mph SSW3.2 kmh SSW 2.0 mph3.2 kmh 29.62 in1003.0 mb 0.00 in0.0 mm 0.00 in0.0 mm 0.34 in8.6 mm
08:33 AM 44.6°F7.0°C 48.7°F9.3°C 89% 0.4 mph SW0.6 kmh SW 0.4 mph0.6 kmh 29.62 in1003.0 mb 0.00 in0.0 mm 0.00 in0.0 mm 0.34 in8.6 mm
08:36 AM 44.6°F7.0°C 48.8°F9.3°C 90% 2.0 mph SW3.2 kmh SW 2.0 mph3.2 kmh 29.62 in1003.0 mb 0.00 in0.0 mm 0.00 in0.0 mm 0.34 in8.6 mm
08:39 AM 44.5°F6.9°C 49.1°F9.5°C 91% 2.0 mph WSW3.2 kmh WSW 2.0 mph3.2 kmh 29.62 in1003.0 mb 0.00 in0.0 mm 0.00 in0.0 mm 0.36 in9.1 mm
08:42 AM 44.5°F6.9°C 49.0°F9.4°C 91% 1.2 mph SW1.9 kmh SW 1.2 mph1.9 kmh 29.62 in1003.0 mb 0.00 in0.0 mm 0.00 in0.0 mm 0.36 in9.1 mm
08:45 AM 44.5°F6.9°C 49.1°F9.5°C 91% 1.6 mph NNW2.6 kmh NNW 1.6 mph2.6 kmh 29.62 in1003.0 mb 0.00 in0.0 mm 0.00 in0.0 mm 0.36 in9.1 mm
08:48 AM 44.5°F6.9°C 49.0°F9.4°C 91% Calm Calm -- 29.62 in1003.0 mb 0.00 in0.0 mm 0.00 in0.0 mm 0.36 in9.1 mm
08:51 AM 44.5°F6.9°C 48.8°F9.3°C 91% 1.2 mph W1.9 kmh W 1.2 mph1.9 kmh 29.62 in1003.0 mb 0.00 in0.0 mm 0.00 in0.0 mm 0.38 in9.7 mm
08:54 AM 44.5°F6.9°C 49.2°F9.6°C 91% 1.6 mph W2.6 kmh W 1.6 mph2.6 kmh 29.62 in1003.0 mb 0.00 in0.0 mm 0.00 in0.0 mm 0.38 in9.7 mm
08:57 AM 44.4°F6.9°C 48.5°F9.2°C 89% 2.8 mph SW4.5 kmh SW 2.9 mph4.7 kmh 29.62 in1003.0 mb 0.00 in0.0 mm 0.00 in0.0 mm 0.38 in9.7 mm
09:00 AM 44.4°F6.9°C 48.8°F9.3°C 90% 0.8 mph WSW1.3 kmh WSW 0.8 mph1.3 kmh 29.62 in1003.0 mb 0.00 in0.0 mm 0.00 in0.0 mm 0.40 in10.2 mm
09:03 AM 44.4°F6.9°C 48.5°F9.2°C 89% 0.4 mph SW0.6 kmh SW 0.4 mph0.6 kmh 29.62 in1003.0 mb 0.00 in0.0 mm 0.00 in0.0 mm 0.40 in10.2 mm
09:06 AM 44.4°F6.9°C 48.9°F9.4°C 91% 0.8 mph SW1.3 kmh SW 0.8 mph1.3 kmh 29.62 in1003.0 mb 0.00 in0.0 mm 0.00 in0.0 mm 0.40 in10.2 mm
09:09 AM 44.4°F6.9°C 49.0°F9.4°C 91% 0.4 mph SW0.6 kmh SW 0.4 mph0.6 kmh 29.62 in1003.0 mb 0.00 in0.0 mm 0.00 in0.0 mm 0.42 in10.7 mm
09:12 AM 44.5°F6.9°C 48.8°F9.3°C 91% Calm Calm -- 29.62 in1003.0 mb 0.00 in0.0 mm 0.00 in0.0 mm 0.42 in10.7 mm
09:15 AM 44.5°F6.9°C 49.1°F9.5°C 91% 0.4 mph NNW0.6 kmh NNW 0.4 mph0.6 kmh 29.62 in1003.0 mb 0.00 in0.0 mm 0.00 in0.0 mm 0.42 in10.7 mm
09:18 AM 44.4°F6.9°C 48.7°F9.3°C 91% 3.2 mph W5.1 kmh W 3.3 mph5.3 kmh 29.62 in1003.0 mb 0.00 in0.0 mm 0.00 in0.0 mm 0.44 in11.2 mm
09:21 AM 44.4°F6.9°C 48.8°F9.3°C 91% 2.4 mph SW3.9 kmh SW 2.5 mph4.0 kmh 29.62 in1003.0 mb 0.00 in0.0 mm 0.00 in0.0 mm 0.44 in11.2 mm
09:24 AM 44.4°F6.9°C 48.9°F9.4°C 91% 2.8 mph WSW4.5 kmh WSW 2.9 mph4.7 kmh 29.62 in1003.0 mb 0.00 in0.0 mm 0.00 in0.0 mm 0.46 in11.7 mm
09:27 AM 44.4°F6.9°C 48.7°F9.3°C 91% 1.6 mph WSW2.6 kmh WSW 1.6 mph2.6 kmh 29.62 in1003.0 mb 0.00 in0.0 mm 0.00 in0.0 mm 0.46 in11.7 mm
09:30 AM 44.4°F6.9°C 49.0°F9.4°C 91% 7.3 mph W11.7 kmh W 7.3 mph11.7 kmh 29.62 in1003.0 mb 0.00 in0.0 mm 0.00 in0.0 mm 0.46 in11.7 mm
09:33 AM 44.4°F6.9°C 48.6°F9.2°C 91% 5.7 mph NNW9.2 kmh NNW 5.7 mph9.2 kmh 29.62 in1003.0 mb 0.00 in0.0 mm 0.00 in0.0 mm 0.48 in12.2 mm
09:36 AM 44.3°F6.8°C 48.4°F9.1°C 90% 3.2 mph W5.1 kmh W 3.3 mph5.3 kmh 29.62 in1003.0 mb 0.00 in0.0 mm 0.00 in0.0 mm 0.48 in12.2 mm
09:39 AM 44.3°F6.8°C 48.1°F8.9°C 90% 4.1 mph W6.6 kmh W 4.1 mph6.6 kmh 29.62 in1003.0 mb 0.00 in0.0 mm 0.00 in0.0 mm 0.48 in12.2 mm
09:42 AM 44.2°F6.8°C 48.3°F9.1°C 90% 7.7 mph NW12.4 kmh NW 7.7 mph12.4 kmh 29.63 in1003.4 mb 0.00 in0.0 mm 0.00 in0.0 mm 0.48 in12.2 mm
09:45 AM 44.2°F6.8°C 48.1°F8.9°C 90% 2.4 mph WNW3.9 kmh WNW 2.4 mph3.9 kmh 29.63 in1003.4 mb 0.00 in0.0 mm 0.00 in0.0 mm 0.50 in12.7 mm
09:48 AM 43.8°F6.6°C 47.9°F8.8°C 89% 4.0 mph NW6.4 kmh NW 4.1 mph6.6 kmh 29.63 in1003.4 mb 0.00 in0.0 mm 0.00 in0.0 mm 0.50 in12.7 mm
09:51 AM 43.7°F6.5°C 47.3°F8.5°C 88% 2.8 mph NW4.5 kmh NW 2.8 mph4.5 kmh 29.63 in1003.4 mb 0.00 in0.0 mm 0.00 in0.0 mm 0.50 in12.7 mm
09:54 AM 43.6°F6.4°C 47.2°F8.4°C 88% 3.2 mph W5.1 kmh W 3.2 mph5.1 kmh 29.63 in1003.4 mb 0.00 in0.0 mm 0.00 in0.0 mm 0.50 in12.7 mm
09:57 AM 43.5°F6.4°C 47.0°F8.3°C 88% 8.5 mph WNW13.7 kmh WNW 8.6 mph13.8 kmh 29.64 in1003.7 mb 0.00 in0.0 mm 0.00 in0.0 mm 0.50 in12.7 mm
10:00 AM 43.4°F6.3°C 47.2°F8.4°C 88% 2.8 mph NW4.5 kmh NW 2.8 mph4.5 kmh 29.64 in1003.7 mb 0.00 in0.0 mm 0.00 in0.0 mm 0.50 in12.7 mm
10:03 AM 43.4°F6.3°C 47.1°F8.4°C 87% 6.1 mph WNW9.8 kmh WNW 6.1 mph9.8 kmh 29.64 in1003.7 mb 0.00 in0.0 mm 0.00 in0.0 mm 0.52 in13.2 mm
10:06 AM 43.1°F6.2°C 46.8°F8.2°C 87% 8.5 mph WNW13.7 kmh WNW 8.5 mph13.7 kmh 29.64 in1003.7 mb 0.00 in0.0 mm 0.00 in0.0 mm 0.52 in13.2 mm
10:09 AM 43.1°F6.2°C 46.4°F8.0°C 87% 9.1 mph WNW14.6 kmh WNW 9.2 mph14.8 kmh 29.64 in1003.7 mb 0.00 in0.0 mm 0.00 in0.0 mm 0.52 in13.2 mm
10:12 AM 43.1°F6.2°C 46.6°F8.1°C 87% 4.1 mph NW6.6 kmh NW 4.1 mph6.6 kmh 29.64 in1003.7 mb 0.00 in0.0 mm 0.00 in0.0 mm 0.52 in13.2 mm
10:15 AM 43.0°F6.1°C 46.7°F8.2°C 88% 4.0 mph WNW6.4 kmh WNW 4.0 mph6.4 kmh 29.64 in1003.7 mb 0.00 in0.0 mm 0.00 in0.0 mm 0.52 in13.2 mm
10:18 AM 43.1°F6.2°C 46.8°F8.2°C 87% 2.4 mph NNW3.9 kmh NNW 2.4 mph3.9 kmh 29.64 in1003.7 mb 0.00 in0.0 mm 0.00 in0.0 mm 0.54 in13.7 mm
10:21 AM 43.0°F6.1°C 46.6°F8.1°C 87% 3.6 mph NW5.8 kmh NW 3.6 mph5.8 kmh 29.64 in1003.7 mb 0.00 in0.0 mm 0.00 in0.0 mm 0.54 in13.7 mm
10:24 AM 43.0°F6.1°C 46.7°F8.2°C 87% 2.8 mph NNW4.5 kmh NNW 2.8 mph4.5 kmh 29.64 in1003.7 mb 0.00 in0.0 mm 0.00 in0.0 mm 0.54 in13.7 mm
10:27 AM 43.0°F6.1°C 46.7°F8.2°C 87% 3.6 mph NNW5.8 kmh NNW 3.7 mph6.0 kmh 29.64 in1003.7 mb 0.00 in0.0 mm 0.00 in0.0 mm 0.54 in13.7 mm
10:30 AM 42.9°F6.1°C 46.7°F8.2°C 87% 1.2 mph NNW1.9 kmh NNW 1.2 mph1.9 kmh 29.64 in1003.7 mb 0.00 in0.0 mm 0.00 in0.0 mm 0.54 in13.7 mm
10:33 AM 43.0°F6.1°C 46.4°F8.0°C 87% 2.0 mph NW3.2 kmh NW 2.0 mph3.2 kmh 29.64 in1003.7 mb 0.00 in0.0 mm 0.00 in0.0 mm 0.54 in13.7 mm
10:36 AM 42.9°F6.1°C 46.6°F8.1°C 88% 4.0 mph W6.4 kmh W 4.1 mph6.6 kmh 29.64 in1003.7 mb 0.00 in0.0 mm 0.00 in0.0 mm 0.54 in13.7 mm
10:39 AM 42.9°F6.1°C 46.5°F8.1°C 87% 4.0 mph NNW6.4 kmh NNW 4.0 mph6.4 kmh 29.64 in1003.7 mb 0.00 in0.0 mm 0.00 in0.0 mm 0.54 in13.7 mm
10:42 AM 42.8°F6.0°C 46.6°F8.1°C 87% 4.4 mph NNW7.1 kmh NNW 4.5 mph7.2 kmh 29.64 in1003.7 mb 0.00 in0.0 mm 0.00 in0.0 mm 0.56 in14.2 mm
10:45 AM 42.8°F6.0°C 46.3°F7.9°C 87% 6.5 mph NNW10.5 kmh NNW 6.5 mph10.5 kmh 29.64 in1003.7 mb 0.00 in0.0 mm 0.00 in0.0 mm 0.56 in14.2 mm
10:48 AM 42.8°F6.0°C 46.3°F7.9°C 87% 4.5 mph NW7.2 kmh NW 4.5 mph7.2 kmh 29.64 in1003.7 mb 0.00 in0.0 mm 0.00 in0.0 mm 0.56 in14.2 mm
10:51 AM 42.7°F5.9°C 46.1°F7.8°C 87% 6.4 mph NW10.3 kmh NW 6.4 mph10.3 kmh 29.64 in1003.7 mb 0.00 in0.0 mm 0.00 in0.0 mm 0.56 in14.2 mm
10:54 AM 42.5°F5.8°C 45.9°F7.7°C 86% 3.6 mph 5.8 kmh 3.7 mph6.0 kmh 29.64 in1003.7 mb 0.00 in0.0 mm 0.00 in0.0 mm 0.56 in14.2 mm
10:57 AM 42.5°F5.8°C 45.8°F7.7°C 86% 8.3 mph WNW13.4 kmh WNW 8.4 mph13.5 kmh 29.64 in1003.7 mb 0.00 in0.0 mm 0.00 in0.0 mm 0.56 in14.2 mm
11:00 AM 42.4°F5.8°C 45.3°F7.4°C 86% 3.6 mph NW5.8 kmh NW 3.6 mph5.8 kmh 29.64 in1003.7 mb 0.00 in0.0 mm 0.00 in0.0 mm 0.56 in14.2 mm
11:03 AM 42.4°F5.8°C 45.8°F7.7°C 87% 3.2 mph NNW5.1 kmh NNW 3.2 mph5.1 kmh 29.64 in1003.7 mb 0.00 in0.0 mm 0.00 in0.0 mm 0.56 in14.2 mm
11:06 AM 42.4°F5.8°C 45.5°F7.5°C 86% 4.0 mph NW6.4 kmh NW 4.1 mph6.6 kmh 29.64 in1003.7 mb 0.00 in0.0 mm 0.00 in0.0 mm 0.56 in14.2 mm
11:09 AM 42.4°F5.8°C 45.5°F7.5°C 86% 5.2 mph NW8.4 kmh NW 5.2 mph8.4 kmh 29.65 in1004.1 mb 0.00 in0.0 mm 0.00 in0.0 mm 0.56 in14.2 mm
11:12 AM 42.2°F5.7°C 45.3°F7.4°C 86% 2.8 mph NW4.5 kmh NW 2.9 mph4.7 kmh 29.64 in1003.7 mb 0.00 in0.0 mm 0.00 in0.0 mm 0.56 in14.2 mm
11:15 AM 42.2°F5.7°C 45.5°F7.5°C 86% 3.2 mph WNW5.1 kmh WNW 3.2 mph5.1 kmh 29.64 in1003.7 mb 0.00 in0.0 mm 0.00 in0.0 mm 0.56 in14.2 mm
11:18 AM 42.5°F5.8°C 45.6°F7.6°C 86% 2.0 mph NW3.2 kmh NW 2.0 mph3.2 kmh 29.64 in1003.7 mb 0.00 in0.0 mm 0.00 in0.0 mm 0.56 in14.2 mm
11:21 AM 42.4°F5.8°C 45.8°F7.7°C 87% 2.8 mph NW4.5 kmh NW 2.8 mph4.5 kmh 29.64 in1003.7 mb 0.00 in0.0 mm 0.00 in0.0 mm 0.56 in14.2 mm
11:24 AM 42.4°F5.8°C 45.8°F7.7°C 87% 1.2 mph NW1.9 kmh NW 1.2 mph1.9 kmh 29.64 in1003.7 mb 0.00 in0.0 mm 0.00 in0.0 mm 0.56 in14.2 mm
11:27 AM 42.2°F5.7°C 45.3°F7.4°C 86% 3.6 mph NW5.8 kmh NW 3.7 mph6.0 kmh 29.64 in1003.7 mb 0.00 in0.0 mm 0.00 in0.0 mm 0.56 in14.2 mm
11:30 AM 42.2°F5.7°C 45.6°F7.6°C 87% 4.0 mph NNW6.4 kmh NNW 4.0 mph6.4 kmh 29.64 in1003.7 mb 0.00 in0.0 mm 0.00 in0.0 mm 0.56 in14.2 mm
11:33 AM 42.6°F5.9°C 45.6°F7.6°C 87% 0.4 mph WNW0.6 kmh WNW 0.4 mph0.6 kmh 29.64 in1003.7 mb 0.00 in0.0 mm 0.00 in0.0 mm 0.58 in14.7 mm
11:36 AM 42.7°F5.9°C 45.9°F7.7°C 87% 2.0 mph NNW3.2 kmh NNW 2.0 mph3.2 kmh 29.64 in1003.7 mb 0.00 in0.0 mm 0.00 in0.0 mm 0.58 in14.7 mm
11:39 AM 42.7°F5.9°C 45.9°F7.7°C 87% 3.2 mph NNW5.1 kmh NNW 3.3 mph5.3 kmh 29.64 in1003.7 mb 0.00 in0.0 mm 0.00 in0.0 mm 0.58 in14.7 mm
11:42 AM 42.6°F5.9°C 45.7°F7.6°C 87% 1.6 mph NW2.6 kmh NW 1.6 mph2.6 kmh 29.64 in1003.7 mb 0.00 in0.0 mm 0.00 in0.0 mm 0.58 in14.7 mm
11:45 AM 42.8°F6.0°C 46.0°F7.8°C 87% Calm Calm -- 29.65 in1004.1 mb 0.00 in0.0 mm 0.00 in0.0 mm 0.58 in14.7 mm
11:48 AM 42.8°F6.0°C 45.9°F7.7°C 87% 2.0 mph NW3.2 kmh NW 2.0 mph3.2 kmh 29.65 in1004.1 mb 0.00 in0.0 mm 0.00 in0.0 mm 0.58 in14.7 mm
11:51 AM 42.8°F6.0°C 45.9°F7.7°C 87% 1.2 mph W1.9 kmh W 1.2 mph1.9 kmh 29.65 in1004.1 mb 0.00 in0.0 mm 0.00 in0.0 mm 0.58 in14.7 mm
11:54 AM 42.7°F5.9°C 46.2°F7.9°C 88% 2.0 mph NW3.2 kmh NW 2.0 mph3.2 kmh 29.65 in1004.1 mb 0.00 in0.0 mm 0.00 in0.0 mm 0.58 in14.7 mm
11:57 AM 42.7°F5.9°C 46.0°F7.8°C 88% 1.6 mph NW2.6 kmh NW 1.6 mph2.6 kmh 29.66 in1004.4 mb 0.00 in0.0 mm 0.00 in0.0 mm 0.58 in14.7 mm
12:00 PM 42.6°F5.9°C 46.1°F7.8°C 88% 3.6 mph NW5.8 kmh NW 3.6 mph5.8 kmh 29.66 in1004.4 mb 0.00 in0.0 mm 0.00 in0.0 mm 0.58 in14.7 mm
12:03 PM 42.5°F5.8°C 46.0°F7.8°C 87% 2.4 mph NW3.9 kmh NW 2.4 mph3.9 kmh 29.66 in1004.4 mb 0.00 in0.0 mm 0.00 in0.0 mm 0.58 in14.7 mm
12:06 PM 42.7°F5.9°C 45.7°F7.6°C 87% 0.8 mph W1.3 kmh W 0.8 mph1.3 kmh 29.65 in1004.1 mb 0.00 in0.0 mm 0.00 in0.0 mm 0.58 in14.7 mm
12:09 PM 42.5°F5.8°C 46.0°F7.8°C 88% 0.8 mph NW1.3 kmh NW 0.8 mph1.3 kmh 29.65 in1004.1 mb 0.00 in0.0 mm 0.00 in0.0 mm 0.58 in14.7 mm
12:12 PM 42.6°F5.9°C 45.7°F7.6°C 87% 2.0 mph WNW3.2 kmh WNW 2.0 mph3.2 kmh 29.66 in1004.4 mb 0.00 in0.0 mm 0.00 in0.0 mm 0.58 in14.7 mm
12:15 PM 42.6°F5.9°C 46.1°F7.8°C 88% 0.8 mph WNW1.3 kmh WNW 0.8 mph1.3 kmh 29.65 in1004.1 mb 0.00 in0.0 mm 0.00 in0.0 mm 0.58 in14.7 mm
12:18 PM 42.5°F5.8°C 46.0°F7.8°C 88% 3.2 mph W5.1 kmh W 3.3 mph5.3 kmh 29.65 in1004.1 mb 0.00 in0.0 mm 0.00 in0.0 mm 0.58 in14.7 mm
12:21 PM 42.5°F5.8°C 45.6°F7.6°C 87% 2.0 mph W3.2 kmh W 2.0 mph3.2 kmh 29.66 in1004.4 mb 0.00 in0.0 mm 0.00 in0.0 mm 0.58 in14.7 mm
12:24 PM 42.6°F5.9°C 46.2°F7.9°C 89% 4.9 mph NW7.9 kmh NW 4.9 mph7.9 kmh 29.66 in1004.4 mb 0.00 in0.0 mm 0.00 in0.0 mm 0.58 in14.7 mm
12:27 PM 42.4°F5.8°C 46.1°F7.8°C 89% 1.2 mph WSW1.9 kmh WSW 1.2 mph1.9 kmh 29.66 in1004.4 mb 0.00 in0.0 mm 0.00 in0.0 mm 0.58 in14.7 mm
12:30 PM 42.5°F5.8°C 46.1°F7.8°C 88% 5.3 mph NW8.5 kmh NW 5.3 mph8.5 kmh 29.66 in1004.4 mb 0.00 in0.0 mm 0.00 in0.0 mm 0.58 in14.7 mm
12:33 PM 42.5°F5.8°C 46.1°F7.8°C 89% 5.2 mph W8.4 kmh W 5.3 mph8.5 kmh 29.66 in1004.4 mb 0.00 in0.0 mm 0.00 in0.0 mm 0.58 in14.7 mm
12:36 PM 42.4°F5.8°C 45.6°F7.6°C 87% 3.2 mph W5.1 kmh W 3.2 mph5.1 kmh 29.66 in1004.4 mb 0.00 in0.0 mm 0.00 in0.0 mm 0.58 in14.7 mm
12:39 PM 42.4°F5.8°C 46.0°F7.8°C 88% 0.4 mph NW0.6 kmh NW 0.4 mph0.6 kmh 29.66 in1004.4 mb 0.00 in0.0 mm 0.00 in0.0 mm 0.58 in14.7 mm
12:42 PM 42.4°F5.8°C 45.8°F7.7°C 88% 6.9 mph NNW11.1 kmh NNW 6.9 mph11.1 kmh 29.66 in1004.4 mb 0.00 in0.0 mm 0.00 in0.0 mm 0.60 in15.2 mm
12:45 PM 42.2°F5.7°C 45.7°F7.6°C 88% 6.5 mph WNW10.5 kmh WNW 6.5 mph10.5 kmh 29.66 in1004.4 mb 0.00 in0.0 mm 0.00 in0.0 mm 0.60 in15.2 mm
12:48 PM 42.4°F5.8°C 45.4°F7.4°C 87% 6.4 mph NW10.3 kmh NW 6.4 mph10.3 kmh 29.67 in1004.7 mb 0.00 in0.0 mm 0.00 in0.0 mm 0.60 in15.2 mm
12:51 PM 42.2°F5.7°C 45.4°F7.4°C 87% 2.8 mph W4.5 kmh W 2.8 mph4.5 kmh 29.66 in1004.4 mb 0.00 in0.0 mm 0.00 in0.0 mm 0.60 in15.2 mm
12:54 PM 42.1°F5.6°C 45.4°F7.4°C 88% 6.5 mph NW10.5 kmh NW 6.5 mph10.5 kmh 29.66 in1004.4 mb 0.00 in0.0 mm 0.00 in0.0 mm 0.60 in15.2 mm
12:57 PM 42.1°F5.6°C 45.7°F7.6°C 88% 1.2 mph NW1.9 kmh NW 1.2 mph1.9 kmh 29.66 in1004.4 mb 0.00 in0.0 mm 0.00 in0.0 mm 0.60 in15.2 mm
01:00 PM 42.1°F5.6°C 45.5°F7.5°C 87% 3.2 mph NNW5.1 kmh NNW 3.3 mph5.3 kmh 29.67 in1004.7 mb 0.00 in0.0 mm 0.00 in0.0 mm 0.60 in15.2 mm
01:03 PM 42.2°F5.7°C 45.5°F7.5°C 88% 2.0 mph NW3.2 kmh NW 2.0 mph3.2 kmh 29.66 in1004.4 mb 0.00 in0.0 mm 0.00 in0.0 mm 0.60 in15.2 mm
01:06 PM 42.2°F5.7°C 45.6°F7.6°C 88% 0.8 mph NW1.3 kmh NW 0.8 mph1.3 kmh 29.66 in1004.4 mb 0.00 in0.0 mm 0.00 in0.0 mm 0.60 in15.2 mm
01:09 PM 42.2°F5.7°C 45.3°F7.4°C 88% 0.8 mph W1.3 kmh W 0.8 mph1.3 kmh 29.66 in1004.4 mb 0.00 in0.0 mm 0.00 in0.0 mm 0.60 in15.2 mm
01:12 PM 42.1°F5.6°C 45.7°F7.6°C 88% 1.2 mph W1.9 kmh W 1.2 mph1.9 kmh 29.66 in1004.4 mb 0.00 in0.0 mm 0.00 in0.0 mm 0.60 in15.2 mm
01:15 PM 42.1°F5.6°C 45.6°F7.6°C 88% 2.8 mph NNW4.5 kmh NNW 2.9 mph4.7 kmh 29.66 in1004.4 mb 0.00 in0.0 mm 0.00 in0.0 mm 0.60 in15.2 mm
01:18 PM 42.2°F5.7°C 45.6°F7.6°C 88% 4.4 mph NW7.1 kmh NW 4.4 mph7.1 kmh 29.66 in1004.4 mb 0.00 in0.0 mm 0.00 in0.0 mm 0.60 in15.2 mm
01:21 PM 42.1°F5.6°C 45.7°F7.6°C 88% 4.4 mph NW7.1 kmh NW 4.5 mph7.2 kmh 29.66 in1004.4 mb 0.00 in0.0 mm 0.00 in0.0 mm 0.60 in15.2 mm
01:24 PM 42.2°F5.7°C 45.6°F7.6°C 88% 3.2 mph NNW5.1 kmh NNW 3.3 mph5.3 kmh 29.66 in1004.4 mb 0.00 in0.0 mm 0.00 in0.0 mm 0.60 in15.2 mm
01:27 PM 42.4°F5.8°C 45.7°F7.6°C 88% 0.4 mph W0.6 kmh W 0.4 mph0.6 kmh 29.66 in1004.4 mb 0.00 in0.0 mm 0.00 in0.0 mm 0.60 in15.2 mm
01:30 PM 42.2°F5.7°C 45.5°F7.5°C 88% 2.8 mph WNW4.5 kmh WNW 2.9 mph4.7 kmh 29.66 in1004.4 mb 0.00 in0.0 mm 0.00 in0.0 mm 0.60 in15.2 mm
01:33 PM 42.1°F5.6°C 45.8°F7.7°C 88% 4.0 mph W6.4 kmh W 4.1 mph6.6 kmh 29.66 in1004.4 mb 0.00 in0.0 mm 0.00 in0.0 mm 0.60 in15.2 mm
01:36 PM 42.2°F5.7°C 45.6°F7.6°C 88% Calm Calm -- 29.66 in1004.4 mb 0.00 in0.0 mm 0.00 in0.0 mm 0.60 in15.2 mm
01:39 PM 42.1°F5.6°C 45.9°F7.7°C 89% 2.0 mph W3.2 kmh W 2.0 mph3.2 kmh 29.66 in1004.4 mb 0.00 in0.0 mm 0.00 in0.0 mm 0.60 in15.2 mm
01:42 PM 42.1°F5.6°C 45.7°F7.6°C 88% Calm Calm -- 29.66 in1004.4 mb 0.00 in0.0 mm 0.00 in0.0 mm 0.60 in15.2 mm
01:45 PM 42.1°F5.6°C 45.7°F7.6°C 88% 2.3 mph NW3.7 kmh NW 2.3 mph3.7 kmh 29.66 in1004.4 mb 0.00 in0.0 mm 0.00 in0.0 mm 0.60 in15.2 mm
01:48 PM 42.0°F5.6°C 45.9°F7.7°C 89% 2.0 mph WSW3.2 kmh WSW 2.0 mph3.2 kmh 29.66 in1004.4 mb 0.00 in0.0 mm 0.00 in0.0 mm 0.60 in15.2 mm
01:51 PM 42.0°F5.6°C 45.7°F7.6°C 88% 2.4 mph W3.9 kmh W 2.5 mph4.0 kmh 29.66 in1004.4 mb 0.00 in0.0 mm 0.00 in0.0 mm 0.60 in15.2 mm
01:54 PM 42.0°F5.6°C 45.5°F7.5°C 88% 1.6 mph WNW2.6 kmh WNW 1.6 mph2.6 kmh 29.66 in1004.4 mb 0.00 in0.0 mm 0.00 in0.0 mm 0.60 in15.2 mm
01:57 PM 42.0°F5.6°C 45.4°F7.4°C 88% 0.8 mph NNW1.3 kmh NNW 0.8 mph1.3 kmh 29.67 in1004.7 mb 0.00 in0.0 mm 0.00 in0.0 mm 0.60 in15.2 mm
02:00 PM 42.1°F5.6°C 45.3°F7.4°C 87% 4.0 mph NNW6.4 kmh NNW 4.0 mph6.4 kmh 29.67 in1004.7 mb 0.00 in0.0 mm 0.00 in0.0 mm 0.60 in15.2 mm
02:03 PM 42.0°F5.6°C 45.7°F7.6°C 88% 5.3 mph WNW8.5 kmh WNW 5.3 mph8.5 kmh 29.67 in1004.7 mb 0.00 in0.0 mm 0.00 in0.0 mm 0.60 in15.2 mm
02:06 PM 42.0°F5.6°C 45.5°F7.5°C 88% 5.4 mph W8.7 kmh W 5.4 mph8.7 kmh 29.67 in1004.7 mb 0.00 in0.0 mm 0.00 in0.0 mm 0.60 in15.2 mm
02:09 PM 42.0°F5.6°C 45.5°F7.5°C 88% 3.2 mph NW5.1 kmh NW 3.3 mph5.3 kmh 29.67 in1004.7 mb 0.00 in0.0 mm 0.00 in0.0 mm 0.60 in15.2 mm
02:12 PM 41.9°F5.5°C 45.0°F7.2°C 87% 6.7 mph W10.8 kmh W 6.8 mph10.9 kmh 29.67 in1004.7 mb 0.00 in0.0 mm 0.00 in0.0 mm 0.60 in15.2 mm
02:15 PM 41.9°F5.5°C 45.4°F7.4°C 88% 5.7 mph NNW9.2 kmh NNW 5.7 mph9.2 kmh 29.67 in1004.7 mb 0.00 in0.0 mm 0.00 in0.0 mm 0.60 in15.2 mm
02:18 PM 41.9°F5.5°C 45.5°F7.5°C 88% 2.4 mph WNW3.9 kmh WNW 2.4 mph3.9 kmh 29.67 in1004.7 mb 0.00 in0.0 mm 0.00 in0.0 mm 0.60 in15.2 mm
02:21 PM 41.9°F5.5°C 45.2°F7.3°C 88% 7.6 mph WSW12.2 kmh WSW 7.6 mph12.2 kmh 29.67 in1004.7 mb 0.00 in0.0 mm 0.00 in0.0 mm 0.60 in15.2 mm
02:24 PM 41.9°F5.5°C 45.3°F7.4°C 88% 3.6 mph W5.8 kmh W 3.7 mph6.0 kmh 29.67 in1004.7 mb 0.00 in0.0 mm 0.00 in0.0 mm 0.60 in15.2 mm
02:27 PM 41.9°F5.5°C 45.4°F7.4°C 88% 6.9 mph NNW11.1 kmh NNW 6.9 mph11.1 kmh 29.67 in1004.7 mb 0.00 in0.0 mm 0.00 in0.0 mm 0.60 in15.2 mm
02:30 PM 41.9°F5.5°C 45.5°F7.5°C 88% 4.8 mph NW7.7 kmh NW 4.9 mph7.9 kmh 29.67 in1004.7 mb 0.00 in0.0 mm 0.00 in0.0 mm 0.60 in15.2 mm
02:33 PM 41.9°F5.5°C 44.8°F7.1°C 87% 3.2 mph NNW5.1 kmh NNW 3.2 mph5.1 kmh 29.67 in1004.7 mb 0.00 in0.0 mm 0.00 in0.0 mm 0.60 in15.2 mm
02:36 PM 41.9°F5.5°C 45.1°F7.3°C 88% 2.4 mph WSW3.9 kmh WSW 2.4 mph3.9 kmh 29.67 in1004.7 mb 0.00 in0.0 mm 0.00 in0.0 mm 0.60 in15.2 mm
02:39 PM 41.9°F5.5°C 45.4°F7.4°C 89% 4.4 mph NW7.1 kmh NW 4.5 mph7.2 kmh 29.67 in1004.7 mb 0.00 in0.0 mm 0.00 in0.0 mm 0.60 in15.2 mm
02:42 PM 41.9°F5.5°C 45.4°F7.4°C 88% 4.9 mph NW7.9 kmh NW 4.9 mph7.9 kmh 29.68 in1005.1 mb 0.00 in0.0 mm 0.00 in0.0 mm 0.60 in15.2 mm
02:45 PM 41.9°F5.5°C 45.2°F7.3°C 88% 3.6 mph NW5.8 kmh NW 3.6 mph5.8 kmh 29.68 in1005.1 mb 0.00 in0.0 mm 0.00 in0.0 mm 0.60 in15.2 mm
02:48 PM 41.9°F5.5°C 45.0°F7.2°C 88% 6.0 mph W9.7 kmh W 6.0 mph9.7 kmh 29.68 in1005.1 mb 0.00 in0.0 mm 0.00 in0.0 mm 0.60 in15.2 mm
02:51 PM 41.9°F5.5°C 45.1°F7.3°C 88% 5.3 mph WNW8.5 kmh WNW 5.3 mph8.5 kmh 29.69 in1005.4 mb 0.00 in0.0 mm 0.00 in0.0 mm 0.60 in15.2 mm
02:54 PM 41.8°F5.4°C 45.3°F7.4°C 88% 2.8 mph W4.5 kmh W 2.8 mph4.5 kmh 29.69 in1005.4 mb 0.00 in0.0 mm 0.00 in0.0 mm 0.60 in15.2 mm
02:57 PM 41.8°F5.4°C 45.3°F7.4°C 88% 7.7 mph WSW12.4 kmh WSW 7.7 mph12.4 kmh 29.69 in1005.4 mb 0.00 in0.0 mm 0.00 in0.0 mm 0.60 in15.2 mm
03:00 PM 41.7°F5.4°C 45.3°F7.4°C 88% 6.0 mph W9.7 kmh W 6.0 mph9.7 kmh 29.69 in1005.4 mb 0.00 in0.0 mm 0.00 in0.0 mm 0.60 in15.2 mm
03:03 PM 41.7°F5.4°C 45.3°F7.4°C 88% 2.4 mph W3.9 kmh W 2.4 mph3.9 kmh 29.69 in1005.4 mb 0.00 in0.0 mm 0.00 in0.0 mm 0.60 in15.2 mm
03:06 PM 41.6°F5.3°C 45.0°F7.2°C 88% 5.7 mph WNW9.2 kmh WNW 5.7 mph9.2 kmh 29.69 in1005.4 mb 0.00 in0.0 mm 0.00 in0.0 mm 0.60 in15.2 mm
03:09 PM 41.6°F5.3°C 44.8°F7.1°C 87% 6.0 mph W9.7 kmh W 6.0 mph9.7 kmh 29.69 in1005.4 mb 0.00 in0.0 mm 0.00 in0.0 mm 0.60 in15.2 mm
03:12 PM 41.5°F5.3°C 45.0°F7.2°C 88% 3.6 mph W5.8 kmh W 3.7 mph6.0 kmh 29.69 in1005.4 mb 0.00 in0.0 mm 0.00 in0.0 mm 0.60 in15.2 mm
03:15 PM 41.5°F5.3°C 44.8°F7.1°C 88% 6.0 mph WNW9.7 kmh WNW 6.0 mph9.7 kmh 29.69 in1005.4 mb 0.00 in0.0 mm 0.00 in0.0 mm 0.60 in15.2 mm
03:18 PM 41.5°F5.3°C 44.7°F7.1°C 88% 4.0 mph WNW6.4 kmh WNW 4.0 mph6.4 kmh 29.69 in1005.4 mb 0.00 in0.0 mm 0.00 in0.0 mm 0.60 in15.2 mm
03:21 PM 41.3°F5.2°C 44.9°F7.2°C 88% 6.1 mph NW9.8 kmh NW 6.1 mph9.8 kmh 29.69 in1005.4 mb 0.00 in0.0 mm 0.00 in0.0 mm 0.60 in15.2 mm
03:24 PM 41.5°F5.3°C 44.7°F7.1°C 88% 5.2 mph WNW8.4 kmh WNW 5.3 mph8.5 kmh 29.69 in1005.4 mb 0.00 in0.0 mm 0.00 in0.0 mm 0.60 in15.2 mm
03:27 PM 41.3°F5.2°C 44.8°F7.1°C 88% 5.3 mph WNW8.5 kmh WNW 5.3 mph8.5 kmh 29.69 in1005.4 mb 0.00 in0.0 mm 0.00 in0.0 mm 0.60 in15.2 mm
03:30 PM 41.3°F5.2°C 44.8°F7.1°C 88% 3.2 mph W5.1 kmh W 3.2 mph5.1 kmh 29.70 in1005.8 mb 0.00 in0.0 mm 0.00 in0.0 mm 0.60 in15.2 mm
03:33 PM 41.2°F5.1°C 44.6°F7.0°C 88% 2.8 mph W4.5 kmh W 2.9 mph4.7 kmh 29.70 in1005.8 mb 0.00 in0.0 mm 0.00 in0.0 mm 0.60 in15.2 mm
03:36 PM 41.2°F5.1°C 45.0°F7.2°C 88% 6.1 mph NW9.8 kmh NW 6.1 mph9.8 kmh 29.70 in1005.8 mb 0.00 in0.0 mm 0.00 in0.0 mm 0.60 in15.2 mm
03:39 PM 41.1°F5.1°C 44.6°F7.0°C 87% 3.6 mph WSW5.8 kmh WSW 3.6 mph5.8 kmh 29.70 in1005.8 mb 0.00 in0.0 mm 0.00 in0.0 mm 0.60 in15.2 mm
03:42 PM 41.1°F5.1°C 45.0°F7.2°C 88% 2.8 mph W4.5 kmh W 2.8 mph4.5 kmh 29.70 in1005.8 mb 0.00 in0.0 mm 0.00 in0.0 mm 0.62 in15.7 mm
03:45 PM 40.9°F4.9°C 44.6°F7.0°C 88% 1.6 mph WNW2.6 kmh WNW 1.6 mph2.6 kmh 29.70 in1005.8 mb 0.00 in0.0 mm 0.00 in0.0 mm 0.62 in15.7 mm
03:48 PM 40.8°F4.9°C 44.9°F7.2°C 88% 4.5 mph NNW7.2 kmh NNW 4.5 mph7.2 kmh 29.70 in1005.8 mb 0.00 in0.0 mm 0.00 in0.0 mm 0.62 in15.7 mm
03:51 PM 40.8°F4.9°C 44.8°F7.1°C 88% 3.2 mph WNW5.1 kmh WNW 3.3 mph5.3 kmh 29.70 in1005.8 mb 0.00 in0.0 mm 0.00 in0.0 mm 0.64 in16.3 mm
03:54 PM 40.7°F4.8°C 44.7°F7.1°C 88% 1.6 mph WNW2.6 kmh WNW 1.6 mph2.6 kmh 29.71 in1006.1 mb 0.00 in0.0 mm 0.00 in0.0 mm 0.64 in16.3 mm
03:57 PM 40.7°F4.8°C 44.8°F7.1°C 88% 2.8 mph W4.5 kmh W 2.9 mph4.7 kmh 29.71 in1006.1 mb 0.00 in0.0 mm 0.00 in0.0 mm 0.64 in16.3 mm
04:03 PM 40.4°F4.7°C 44.6°F7.0°C 88% 4.5 mph NNW7.2 kmh NNW 4.5 mph7.2 kmh 29.71 in1006.1 mb 0.00 in0.0 mm 0.00 in0.0 mm 0.64 in16.3 mm
04:06 PM 40.4°F4.7°C 44.5°F6.9°C 88% 4.8 mph NNW7.7 kmh NNW 4.9 mph7.9 kmh 29.71 in1006.1 mb 0.00 in0.0 mm 0.00 in0.0 mm 0.64 in16.3 mm
04:09 PM 40.3°F4.6°C 44.6°F7.0°C 88% 2.8 mph WNW4.5 kmh WNW 2.9 mph4.7 kmh 29.72 in1006.4 mb 0.00 in0.0 mm 0.00 in0.0 mm 0.64 in16.3 mm
04:12 PM 40.3°F4.6°C 44.2°F6.8°C 87% 1.2 mph NNW1.9 kmh NNW 1.2 mph1.9 kmh 29.71 in1006.1 mb 0.00 in0.0 mm 0.00 in0.0 mm 0.64 in16.3 mm
04:15 PM 40.2°F4.6°C 44.4°F6.9°C 88% 4.8 mph W7.7 kmh W 4.9 mph7.9 kmh 29.71 in1006.1 mb 0.00 in0.0 mm 0.00 in0.0 mm 0.64 in16.3 mm
04:18 PM 40.1°F4.5°C 44.0°F6.7°C 87% 3.6 mph WSW5.8 kmh WSW 3.6 mph5.8 kmh 29.72 in1006.4 mb 0.00 in0.0 mm 0.00 in0.0 mm 0.64 in16.3 mm
04:21 PM 40.1°F4.5°C 44.0°F6.7°C 87% 2.4 mph W3.9 kmh W 2.4 mph3.9 kmh 29.72 in1006.4 mb 0.00 in0.0 mm 0.00 in0.0 mm 0.64 in16.3 mm
04:24 PM 40.1°F4.5°C 44.0°F6.7°C 87% 0.8 mph W1.3 kmh W 0.8 mph1.3 kmh 29.72 in1006.4 mb 0.00 in0.0 mm 0.00 in0.0 mm 0.64 in16.3 mm
04:27 PM 40.1°F4.5°C 44.1°F6.7°C 88% 4.4 mph NNW7.1 kmh NNW 4.5 mph7.2 kmh 29.73 in1006.8 mb 0.00 in0.0 mm 0.00 in0.0 mm 0.64 in16.3 mm
04:30 PM 40.1°F4.5°C 44.1°F6.7°C 88% 2.0 mph NW3.2 kmh NW 2.0 mph3.2 kmh 29.73 in1006.8 mb 0.00 in0.0 mm 0.00 in0.0 mm 0.64 in16.3 mm
04:33 PM 40.0°F4.4°C 43.7°F6.5°C 87% 3.2 mph NW5.1 kmh NW 3.3 mph5.3 kmh 29.73 in1006.8 mb 0.00 in0.0 mm 0.00 in0.0 mm 0.64 in16.3 mm
04:36 PM 39.9°F4.4°C 43.5°F6.4°C 87% 4.4 mph NW7.1 kmh NW 4.5 mph7.2 kmh 29.73 in1006.8 mb 0.00 in0.0 mm 0.00 in0.0 mm 0.64 in16.3 mm
04:39 PM 39.8°F4.3°C 43.6°F6.4°C 87% 2.8 mph NW4.5 kmh NW 2.9 mph4.7 kmh 29.73 in1006.8 mb 0.00 in0.0 mm 0.00 in0.0 mm 0.64 in16.3 mm
04:42 PM 39.5°F4.2°C 43.5°F6.4°C 87% 2.4 mph NW3.9 kmh NW 2.4 mph3.9 kmh 29.73 in1006.8 mb 0.00 in0.0 mm 0.00 in0.0 mm 0.64 in16.3 mm
04:45 PM 39.4°F4.1°C 43.2°F6.2°C 86% 2.8 mph 4.5 kmh 2.8 mph4.5 kmh 29.73 in1006.8 mb 0.00 in0.0 mm 0.00 in0.0 mm 0.64 in16.3 mm
04:48 PM 39.4°F4.1°C 43.5°F6.4°C 87% 4.4 mph NNW7.1 kmh NNW 4.4 mph7.1 kmh 29.73 in1006.8 mb 0.00 in0.0 mm 0.00 in0.0 mm 0.64 in16.3 mm
04:51 PM 39.3°F4.1°C 43.3°F6.3°C 86% 1.2 mph NNW1.9 kmh NNW 1.2 mph1.9 kmh 29.74 in1007.1 mb 0.00 in0.0 mm 0.00 in0.0 mm 0.64 in16.3 mm
04:54 PM 39.2°F4.0°C 43.3°F6.3°C 86% 1.2 mph NNW1.9 kmh NNW 1.2 mph1.9 kmh 29.73 in1006.8 mb 0.00 in0.0 mm 0.00 in0.0 mm 0.64 in16.3 mm
04:57 PM 39.0°F3.9°C 43.2°F6.2°C 86% Calm Calm -- 29.74 in1007.1 mb 0.00 in0.0 mm 0.00 in0.0 mm 0.64 in16.3 mm
05:00 PM 38.8°F3.8°C 43.1°F6.2°C 86% 1.6 mph NW2.6 kmh NW 1.6 mph2.6 kmh 29.74 in1007.1 mb 0.00 in0.0 mm 0.00 in0.0 mm 0.64 in16.3 mm
05:03 PM 38.5°F3.6°C 42.8°F6.0°C 85% 0.4 mph NW0.6 kmh NW 0.4 mph0.6 kmh 29.74 in1007.1 mb 0.00 in0.0 mm 0.00 in0.0 mm 0.64 in16.3 mm
05:06 PM 38.3°F3.5°C 43.1°F6.2°C 86% 2.4 mph WNW3.9 kmh WNW 2.4 mph3.9 kmh 29.74 in1007.1 mb 0.00 in0.0 mm 0.00 in0.0 mm 0.64 in16.3 mm
05:09 PM 38.3°F3.5°C 43.2°F6.2°C 86% 1.2 mph NNW1.9 kmh NNW 1.2 mph1.9 kmh 29.74 in1007.1 mb 0.00 in0.0 mm 0.00 in0.0 mm 0.64 in16.3 mm
05:12 PM 38.4°F3.6°C 43.0°F6.1°C 86% 1.6 mph NNW2.6 kmh NNW 1.6 mph2.6 kmh 29.74 in1007.1 mb 0.00 in0.0 mm 0.00 in0.0 mm 0.64 in16.3 mm
05:15 PM 38.5°F3.6°C 42.8°F6.0°C 86% 1.6 mph NW2.6 kmh NW 1.6 mph2.6 kmh 29.75 in1007.5 mb 0.00 in0.0 mm 0.00 in0.0 mm 0.64 in16.3 mm
05:18 PM 38.4°F3.6°C 42.8°F6.0°C 86% Calm Calm -- 29.75 in1007.5 mb 0.00 in0.0 mm 0.00 in0.0 mm 0.64 in16.3 mm
05:24 PM 38.4°F3.6°C 42.8°F6.0°C 86% 0.8 mph WNW1.3 kmh WNW 0.8 mph1.3 kmh 29.76 in1007.8 mb 0.00 in0.0 mm 0.00 in0.0 mm 0.64 in16.3 mm
05:27 PM 38.4°F3.6°C 42.5°F5.8°C 87% 1.6 mph NW2.6 kmh NW 1.6 mph2.6 kmh 29.76 in1007.8 mb 0.00 in0.0 mm 0.00 in0.0 mm 0.64 in16.3 mm
05:30 PM 38.4°F3.6°C 42.5°F5.8°C 86% 2.0 mph NNW3.2 kmh NNW 2.0 mph3.2 kmh 29.76 in1007.8 mb 0.00 in0.0 mm 0.00 in0.0 mm 0.64 in16.3 mm
05:33 PM 38.4°F3.6°C 42.5°F5.8°C 86% Calm Calm -- 29.77 in1008.1 mb 0.00 in0.0 mm 0.00 in0.0 mm 0.64 in16.3 mm
05:36 PM 38.4°F3.6°C 42.8°F6.0°C 87% Calm Calm -- 29.77 in1008.1 mb 0.00 in0.0 mm 0.00 in0.0 mm 0.64 in16.3 mm
05:39 PM 38.3°F3.5°C 42.6°F5.9°C 86% 2.0 mph 3.2 kmh 2.0 mph3.2 kmh 29.77 in1008.1 mb 0.00 in0.0 mm 0.00 in0.0 mm 0.64 in16.3 mm
05:42 PM 38.4°F3.6°C 42.1°F5.6°C 85% 6.1 mph NE9.8 kmh NE 6.1 mph9.8 kmh 29.77 in1008.1 mb 0.00 in0.0 mm 0.00 in0.0 mm 0.64 in16.3 mm
05:45 PM 38.0°F3.3°C 40.5°F4.7°C 83% 9.3 mph NNW15.0 kmh NNW 9.4 mph15.1 kmh 29.77 in1008.1 mb 0.00 in0.0 mm 0.00 in0.0 mm 0.64 in16.3 mm
05:48 PM 37.7°F3.2°C 40.6°F4.8°C 84% 8.5 mph NE13.7 kmh NE 8.5 mph13.7 kmh 29.77 in1008.1 mb 0.00 in0.0 mm 0.00 in0.0 mm 0.64 in16.3 mm
05:51 PM 37.3°F2.9°C 40.8°F4.9°C 84% 0.4 mph E0.6 kmh E 0.4 mph0.6 kmh 29.77 in1008.1 mb 0.00 in0.0 mm 0.00 in0.0 mm 0.64 in16.3 mm
05:54 PM 37.2°F2.9°C 40.9°F4.9°C 84% 2.4 mph NNW3.9 kmh NNW 2.4 mph3.9 kmh 29.77 in1008.1 mb 0.00 in0.0 mm 0.00 in0.0 mm 0.64 in16.3 mm
05:57 PM 37.3°F2.9°C 40.7°F4.8°C 84% 3.6 mph NE5.8 kmh NE 3.7 mph6.0 kmh 29.78 in1008.5 mb 0.00 in0.0 mm 0.00 in0.0 mm 0.64 in16.3 mm
06:00 PM 37.3°F2.9°C 40.7°F4.8°C 84% 2.0 mph NE3.2 kmh NE 2.0 mph3.2 kmh 29.78 in1008.5 mb 0.00 in0.0 mm 0.00 in0.0 mm 0.64 in16.3 mm
06:03 PM 37.3°F2.9°C 40.3°F4.6°C 84% 4.8 mph NE7.7 kmh NE 4.9 mph7.9 kmh 29.79 in1008.8 mb 0.00 in0.0 mm 0.00 in0.0 mm 0.64 in16.3 mm
06:06 PM 37.3°F2.9°C 40.6°F4.8°C 84% 1.6 mph NNE2.6 kmh NNE 1.6 mph2.6 kmh 29.79 in1008.8 mb 0.00 in0.0 mm 0.00 in0.0 mm 0.64 in16.3 mm
06:09 PM 37.5°F3.1°C 40.2°F4.6°C 83% 1.2 mph 1.9 kmh 1.2 mph1.9 kmh 29.79 in1008.8 mb 0.00 in0.0 mm 0.00 in0.0 mm 0.64 in16.3 mm
06:12 PM 37.5°F3.1°C 40.3°F4.6°C 83% 0.4 mph NNW0.6 kmh NNW 0.4 mph0.6 kmh 29.79 in1008.8 mb 0.00 in0.0 mm 0.00 in0.0 mm 0.64 in16.3 mm
06:15 PM 37.4°F3.0°C 40.5°F4.7°C 83% 5.2 mph 8.4 kmh 5.2 mph8.4 kmh 29.79 in1008.8 mb 0.00 in0.0 mm 0.00 in0.0 mm 0.64 in16.3 mm
06:18 PM 37.4°F3.0°C 40.2°F4.6°C 83% 0.8 mph NE1.3 kmh NE 0.8 mph1.3 kmh 29.79 in1008.8 mb 0.00 in0.0 mm 0.00 in0.0 mm 0.64 in16.3 mm
06:21 PM 37.3°F2.9°C 40.3°F4.6°C 83% Calm Calm -- 29.79 in1008.8 mb 0.00 in0.0 mm 0.00 in0.0 mm 0.64 in16.3 mm
06:24 PM 37.1°F2.8°C 40.1°F4.5°C 83% 4.5 mph NNE7.2 kmh NNE 4.5 mph7.2 kmh 29.79 in1008.8 mb 0.00 in0.0 mm 0.00 in0.0 mm 0.64 in16.3 mm
06:27 PM 37.1°F2.8°C 39.8°F4.3°C 83% 2.0 mph 3.2 kmh 2.0 mph3.2 kmh 29.80 in1009.1 mb 0.00 in0.0 mm 0.00 in0.0 mm 0.64 in16.3 mm
06:30 PM 37.1°F2.8°C 40.2°F4.6°C 83% 2.4 mph WNW3.9 kmh WNW 2.5 mph4.0 kmh 29.80 in1009.1 mb 0.00 in0.0 mm 0.00 in0.0 mm 0.64 in16.3 mm
06:33 PM 37.2°F2.9°C 40.0°F4.4°C 83% 0.4 mph NNE0.6 kmh NNE 0.4 mph0.6 kmh 29.80 in1009.1 mb 0.00 in0.0 mm 0.00 in0.0 mm 0.64 in16.3 mm
06:36 PM 37.1°F2.8°C 39.9°F4.4°C 83% 1.6 mph W2.6 kmh W 1.6 mph2.6 kmh 29.80 in1009.1 mb 0.00 in0.0 mm 0.00 in0.0 mm 0.64 in16.3 mm
06:39 PM 37.1°F2.8°C 40.0°F4.4°C 83% Calm Calm -- 29.81 in1009.5 mb 0.00 in0.0 mm 0.00 in0.0 mm 0.64 in16.3 mm
06:42 PM 37.0°F2.8°C 40.2°F4.6°C 83% Calm Calm -- 29.81 in1009.5 mb 0.00 in0.0 mm 0.00 in0.0 mm 0.64 in16.3 mm
06:45 PM 37.0°F2.8°C 40.1°F4.5°C 83% 0.8 mph 1.3 kmh 0.8 mph1.3 kmh 29.81 in1009.5 mb 0.00 in0.0 mm 0.00 in0.0 mm 0.64 in16.3 mm
06:48 PM 37.0°F2.8°C 40.0°F4.4°C 83% 2.0 mph 3.2 kmh 2.0 mph3.2 kmh 29.81 in1009.5 mb 0.00 in0.0 mm 0.00 in0.0 mm 0.64 in16.3 mm
06:51 PM 37.0°F2.8°C 40.1°F4.5°C 83% Calm Calm -- 29.81 in1009.5 mb 0.00 in0.0 mm 0.00 in0.0 mm 0.64 in16.3 mm
06:54 PM 37.1°F2.8°C 40.1°F4.5°C 83% 5.2 mph NNW8.4 kmh NNW 5.2 mph8.4 kmh 29.81 in1009.5 mb 0.00 in0.0 mm 0.00 in0.0 mm 0.64 in16.3 mm
06:57 PM 37.1°F2.8°C 39.5°F4.2°C 82% 3.6 mph NNE5.8 kmh NNE 3.7 mph6.0 kmh 29.81 in1009.5 mb 0.00 in0.0 mm 0.00 in0.0 mm 0.64 in16.3 mm
07:00 PM 37.0°F2.8°C 38.8°F3.8°C 82% 2.8 mph NE4.5 kmh NE 2.8 mph4.5 kmh 29.81 in1009.5 mb 0.00 in0.0 mm 0.00 in0.0 mm 0.64 in16.3 mm
07:03 PM 36.8°F2.7°C 39.3°F4.1°C 83% 1.6 mph NE2.6 kmh NE 1.6 mph2.6 kmh 29.82 in1009.8 mb 0.00 in0.0 mm 0.00 in0.0 mm 0.64 in16.3 mm
07:06 PM 36.7°F2.6°C 39.4°F4.1°C 83% 1.2 mph NNE1.9 kmh NNE 1.2 mph1.9 kmh 29.81 in1009.5 mb 0.00 in0.0 mm 0.00 in0.0 mm 0.64 in16.3 mm
07:09 PM 36.3°F2.4°C 39.3°F4.1°C 83% Calm Calm -- 29.81 in1009.5 mb 0.00 in0.0 mm 0.00 in0.0 mm 0.64 in16.3 mm
07:12 PM 36.1°F2.3°C 39.6°F4.2°C 83% Calm Calm -- 29.82 in1009.8 mb 0.00 in0.0 mm 0.00 in0.0 mm 0.64 in16.3 mm
07:15 PM 35.8°F2.1°C 39.5°F4.2°C 83% Calm Calm -- 29.82 in1009.8 mb 0.00 in0.0 mm 0.00 in0.0 mm 0.64 in16.3 mm
07:18 PM 35.8°F2.1°C 39.5°F4.2°C 83% Calm Calm -- 29.83 in1010.2 mb 0.00 in0.0 mm 0.00 in0.0 mm 0.64 in16.3 mm
07:21 PM 35.6°F2.0°C 39.6°F4.2°C 84% Calm Calm -- 29.83 in1010.2 mb 0.00 in0.0 mm 0.00 in0.0 mm 0.64 in16.3 mm
07:24 PM 35.5°F1.9°C 39.4°F4.1°C 83% Calm Calm -- 29.83 in1010.2 mb 0.00 in0.0 mm 0.00 in0.0 mm 0.64 in16.3 mm
07:27 PM 35.5°F1.9°C 39.6°F4.2°C 84% Calm Calm -- 29.83 in1010.2 mb 0.00 in0.0 mm 0.00 in0.0 mm 0.64 in16.3 mm
07:30 PM 35.8°F2.1°C 39.4°F4.1°C 84% 2.8 mph WNW4.5 kmh WNW 2.8 mph4.5 kmh 29.83 in1010.2 mb 0.00 in0.0 mm 0.00 in0.0 mm 0.64 in16.3 mm
07:36 PM 35.9°F2.2°C 38.7°F3.7°C 82% 4.4 mph NNW7.1 kmh NNW 4.4 mph7.1 kmh 29.84 in1010.5 mb 0.00 in0.0 mm 0.00 in0.0 mm 0.64 in16.3 mm
07:39 PM 35.7°F2.1°C 38.1°F3.4°C 81% 2.8 mph NNW4.5 kmh NNW 2.8 mph4.5 kmh 29.84 in1010.5 mb 0.00 in0.0 mm 0.00 in0.0 mm 0.64 in16.3 mm
07:42 PM 35.7°F2.1°C 38.1°F3.4°C 81% 0.8 mph NNE1.3 kmh NNE 0.8 mph1.3 kmh 29.84 in1010.5 mb 0.00 in0.0 mm 0.00 in0.0 mm 0.64 in16.3 mm
07:45 PM 35.4°F1.9°C 38.1°F3.4°C 82% 4.8 mph NW7.7 kmh NW 4.9 mph7.9 kmh 29.84 in1010.5 mb 0.00 in0.0 mm 0.00 in0.0 mm 0.64 in16.3 mm
07:48 PM 35.7°F2.1°C 38.2°F3.4°C 82% 4.8 mph 7.7 kmh 4.8 mph7.7 kmh 29.84 in1010.5 mb 0.00 in0.0 mm 0.00 in0.0 mm 0.64 in16.3 mm
07:51 PM 35.5°F1.9°C 38.0°F3.3°C 81% 1.6 mph NW2.6 kmh NW 1.6 mph2.6 kmh 29.84 in1010.5 mb 0.00 in0.0 mm 0.00 in0.0 mm 0.64 in16.3 mm
07:54 PM 35.4°F1.9°C 37.9°F3.3°C 81% 0.8 mph NNW1.3 kmh NNW 0.8 mph1.3 kmh 29.84 in1010.5 mb 0.00 in0.0 mm 0.00 in0.0 mm 0.64 in16.3 mm
07:57 PM 35.4°F1.9°C 38.1°F3.4°C 81% 4.0 mph NW6.4 kmh NW 4.0 mph6.4 kmh 29.84 in1010.5 mb 0.00 in0.0 mm 0.00 in0.0 mm 0.64 in16.3 mm
08:00 PM 35.5°F1.9°C 37.9°F3.3°C 81% 2.4 mph NNW3.9 kmh NNW 2.4 mph3.9 kmh 29.85 in1010.8 mb 0.00 in0.0 mm 0.00 in0.0 mm 0.64 in16.3 mm
08:03 PM 35.6°F2.0°C 37.7°F3.2°C 81% 1.2 mph NNE1.9 kmh NNE 1.2 mph1.9 kmh 29.85 in1010.8 mb 0.00 in0.0 mm 0.00 in0.0 mm 0.64 in16.3 mm
08:06 PM 35.3°F1.8°C 37.5°F3.1°C 81% Calm Calm -- 29.85 in1010.8 mb 0.00 in0.0 mm 0.00 in0.0 mm 0.64 in16.3 mm
08:09 PM 35.3°F1.8°C 37.9°F3.3°C 81% Calm Calm -- 29.84 in1010.5 mb 0.00 in0.0 mm 0.00 in0.0 mm 0.64 in16.3 mm
08:12 PM 35.0°F1.7°C 38.0°F3.3°C 82% 1.2 mph NNE1.9 kmh NNE 1.2 mph1.9 kmh 29.85 in1010.8 mb 0.00 in0.0 mm 0.00 in0.0 mm 0.64 in16.3 mm
08:15 PM 35.3°F1.8°C 37.6°F3.1°C 82% 2.0 mph 3.2 kmh 2.0 mph3.2 kmh 29.86 in1011.2 mb 0.00 in0.0 mm 0.00 in0.0 mm 0.64 in16.3 mm
08:18 PM 35.3°F1.8°C 37.9°F3.3°C 82% Calm Calm -- 29.86 in1011.2 mb 0.00 in0.0 mm 0.00 in0.0 mm 0.64 in16.3 mm
08:21 PM 35.2°F1.8°C 37.5°F3.1°C 81% 3.6 mph NE5.8 kmh NE 3.6 mph5.8 kmh 29.86 in1011.2 mb 0.00 in0.0 mm 0.00 in0.0 mm 0.64 in16.3 mm
08:24 PM 35.3°F1.8°C 37.9°F3.3°C 82% 2.0 mph NNW3.2 kmh NNW 2.0 mph3.2 kmh 29.86 in1011.2 mb 0.00 in0.0 mm 0.00 in0.0 mm 0.64 in16.3 mm
08:27 PM 35.3°F1.8°C 37.6°F3.1°C 82% 2.0 mph NNW3.2 kmh NNW 2.0 mph3.2 kmh 29.86 in1011.2 mb 0.00 in0.0 mm 0.00 in0.0 mm 0.64 in16.3 mm
08:30 PM 35.3°F1.8°C 37.4°F3.0°C 81% 1.6 mph 2.6 kmh 1.6 mph2.6 kmh 29.86 in1011.2 mb 0.00 in0.0 mm 0.00 in0.0 mm 0.64 in16.3 mm
08:33 PM 35.3°F1.8°C 37.2°F2.9°C 81% 3.2 mph NW5.1 kmh NW 3.3 mph5.3 kmh 29.87 in1011.5 mb 0.00 in0.0 mm 0.00 in0.0 mm 0.64 in16.3 mm
08:36 PM 35.2°F1.8°C 37.3°F2.9°C 82% Calm Calm -- 29.87 in1011.5 mb 0.00 in0.0 mm 0.00 in0.0 mm 0.64 in16.3 mm
08:39 PM 35.0°F1.7°C 37.5°F3.1°C 81% Calm Calm -- 29.87 in1011.5 mb 0.00 in0.0 mm 0.00 in0.0 mm 0.64 in16.3 mm
08:42 PM 34.9°F1.6°C 37.6°F3.1°C 82% Calm Calm -- 29.87 in1011.5 mb 0.00 in0.0 mm 0.00 in0.0 mm 0.64 in16.3 mm
08:45 PM 34.9°F1.6°C 37.5°F3.1°C 82% 1.6 mph NNW2.6 kmh NNW 1.6 mph2.6 kmh 29.87 in1011.5 mb 0.00 in0.0 mm 0.00 in0.0 mm 0.64 in16.3 mm
08:48 PM 35.2°F1.8°C 37.2°F2.9°C 81% 1.2 mph NNW1.9 kmh NNW 1.2 mph1.9 kmh 29.87 in1011.5 mb 0.00 in0.0 mm 0.00 in0.0 mm 0.64 in16.3 mm
08:51 PM 35.0°F1.7°C 37.3°F2.9°C 82% 0.8 mph NNE1.3 kmh NNE 0.8 mph1.3 kmh 29.89 in1012.2 mb 0.00 in0.0 mm 0.00 in0.0 mm 0.64 in16.3 mm
08:54 PM 34.8°F1.6°C 37.7°F3.2°C 82% Calm Calm -- 29.89 in1012.2 mb 0.00 in0.0 mm 0.00 in0.0 mm 0.64 in16.3 mm
08:57 PM 34.8°F1.6°C 37.6°F3.1°C 82% Calm Calm -- 29.89 in1012.2 mb 0.00 in0.0 mm 0.00 in0.0 mm 0.64 in16.3 mm
09:03 PM 34.7°F1.5°C 37.6°F3.1°C 82% Calm Calm -- 29.88 in1011.9 mb 0.00 in0.0 mm 0.00 in0.0 mm 0.64 in16.3 mm
09:06 PM 34.7°F1.5°C 37.6°F3.1°C 82% Calm Calm -- 29.89 in1012.2 mb 0.00 in0.0 mm 0.00 in0.0 mm 0.64 in16.3 mm
09:09 PM 34.8°F1.6°C 37.7°F3.2°C 82% Calm Calm -- 29.89 in1012.2 mb 0.00 in0.0 mm 0.00 in0.0 mm 0.64 in16.3 mm
09:12 PM 34.6°F1.4°C 37.7°F3.2°C 82% Calm Calm -- 29.89 in1012.2 mb 0.00 in0.0 mm 0.00 in0.0 mm 0.64 in16.3 mm
09:15 PM 34.7°F1.5°C 37.4°F3.0°C 82% Calm Calm -- 29.89 in1012.2 mb 0.00 in0.0 mm 0.00 in0.0 mm 0.64 in16.3 mm
09:18 PM 34.5°F1.4°C 37.6°F3.1°C 83% Calm Calm -- 29.89 in1012.2 mb 0.00 in0.0 mm 0.00 in0.0 mm 0.64 in16.3 mm
09:21 PM 34.3°F1.3°C 38.1°F3.4°C 84% Calm Calm -- 29.89 in1012.2 mb 0.00 in0.0 mm 0.00 in0.0 mm 0.64 in16.3 mm
09:24 PM 34.1°F1.2°C 37.7°F3.2°C 83% Calm Calm -- 29.89 in1012.2 mb 0.00 in0.0 mm 0.00 in0.0 mm 0.64 in16.3 mm
09:27 PM 34.3°F1.3°C 37.9°F3.3°C 84% Calm Calm -- 29.89 in1012.2 mb 0.00 in0.0 mm 0.00 in0.0 mm 0.64 in16.3 mm
09:30 PM 34.3°F1.3°C 38.2°F3.4°C 84% Calm Calm -- 29.89 in1012.2 mb 0.00 in0.0 mm 0.00 in0.0 mm 0.64 in16.3 mm
09:33 PM 34.3°F1.3°C 38.3°F3.5°C 84% Calm Calm -- 29.89 in1012.2 mb 0.00 in0.0 mm 0.00 in0.0 mm 0.64 in16.3 mm
09:36 PM 34.1°F1.2°C 38.0°F3.3°C 84% Calm Calm -- 29.89 in1012.2 mb 0.00 in0.0 mm 0.00 in0.0 mm 0.64 in16.3 mm
09:39 PM 34.1°F1.2°C 38.1°F3.4°C 84% Calm Calm -- 29.89 in1012.2 mb 0.00 in0.0 mm 0.00 in0.0 mm 0.64 in16.3 mm
09:42 PM 34.1°F1.2°C 38.0°F3.3°C 84% Calm Calm -- 29.89 in1012.2 mb 0.00 in0.0 mm 0.00 in0.0 mm 0.64 in16.3 mm
09:45 PM 33.9°F1.1°C 38.1°F3.4°C 85% Calm Calm -- 29.89 in1012.2 mb 0.00 in0.0 mm 0.00 in0.0 mm 0.64 in16.3 mm
09:48 PM 33.8°F1.0°C 38.1°F3.4°C 85% Calm Calm -- 29.90 in1012.5 mb 0.00 in0.0 mm 0.00 in0.0 mm 0.64 in16.3 mm
09:51 PM 34.0°F1.1°C 38.2°F3.4°C 85% Calm Calm -- 29.90 in1012.5 mb 0.00 in0.0 mm 0.00 in0.0 mm 0.64 in16.3 mm
09:54 PM 33.9°F1.1°C 38.0°F3.3°C 85% 1.6 mph NW2.6 kmh NW 1.6 mph2.6 kmh 29.90 in1012.5 mb 0.00 in0.0 mm 0.00 in0.0 mm 0.64 in16.3 mm
09:57 PM 34.0°F1.1°C 38.0°F3.3°C 85% Calm Calm -- 29.90 in1012.5 mb 0.00 in0.0 mm 0.00 in0.0 mm 0.64 in16.3 mm
10:00 PM 34.0°F1.1°C 37.4°F3.0°C 84% 3.2 mph NNW5.1 kmh NNW 3.2 mph5.1 kmh 29.90 in1012.5 mb 0.00 in0.0 mm 0.00 in0.0 mm 0.64 in16.3 mm
10:03 PM 34.0°F1.1°C 37.8°F3.2°C 85% 0.8 mph NW1.3 kmh NW 0.8 mph1.3 kmh 29.91 in1012.9 mb 0.00 in0.0 mm 0.00 in0.0 mm 0.64 in16.3 mm
10:06 PM 34.0°F1.1°C 38.0°F3.3°C 85% 2.4 mph NW3.9 kmh NW 2.4 mph3.9 kmh 29.91 in1012.9 mb 0.00 in0.0 mm 0.00 in0.0 mm 0.64 in16.3 mm
10:09 PM 33.9°F1.1°C 37.8°F3.2°C 85% 2.8 mph NW4.5 kmh NW 2.9 mph4.7 kmh 29.91 in1012.9 mb 0.00 in0.0 mm 0.00 in0.0 mm 0.64 in16.3 mm
10:12 PM 33.9°F1.1°C 37.9°F3.3°C 85% Calm Calm -- 29.91 in1012.9 mb 0.00 in0.0 mm 0.00 in0.0 mm 0.64 in16.3 mm
10:15 PM 34.0°F1.1°C 37.9°F3.3°C 86% Calm Calm -- 29.91 in1012.9 mb 0.00 in0.0 mm 0.00 in0.0 mm 0.64 in16.3 mm
10:18 PM 34.0°F1.1°C 38.1°F3.4°C 86% 1.6 mph NNW2.6 kmh NNW 1.6 mph2.6 kmh 29.91 in1012.9 mb 0.00 in0.0 mm 0.00 in0.0 mm 0.64 in16.3 mm
10:21 PM 33.9°F1.1°C 37.8°F3.2°C 86% 1.6 mph NNW2.6 kmh NNW 1.6 mph2.6 kmh 29.91 in1012.9 mb 0.00 in0.0 mm 0.00 in0.0 mm 0.64 in16.3 mm
10:24 PM 33.8°F1.0°C 37.7°F3.2°C 86% Calm Calm -- 29.91 in1012.9 mb 0.00 in0.0 mm 0.00 in0.0 mm 0.64 in16.3 mm
10:27 PM 33.8°F1.0°C 37.7°F3.2°C 86% Calm Calm -- 29.91 in1012.9 mb 0.00 in0.0 mm 0.00 in0.0 mm 0.64 in16.3 mm
10:30 PM 33.7°F0.9°C 37.6°F3.1°C 86% 0.4 mph 0.6 kmh 0.4 mph0.6 kmh 29.91 in1012.9 mb 0.00 in0.0 mm 0.00 in0.0 mm 0.64 in16.3 mm
10:33 PM 33.7°F0.9°C 37.6°F3.1°C 86% 0.4 mph 0.6 kmh 0.4 mph0.6 kmh 29.91 in1012.9 mb 0.00 in0.0 mm 0.00 in0.0 mm 0.64 in16.3 mm
10:36 PM 33.4°F0.8°C 37.7°F3.2°C 86% Calm Calm -- 29.91 in1012.9 mb 0.00 in0.0 mm 0.00 in0.0 mm 0.64 in16.3 mm
10:42 PM 33.2°F0.7°C 37.6°F3.1°C 86% Calm Calm -- 29.91 in1012.9 mb 0.00 in0.0 mm 0.00 in0.0 mm 0.64 in16.3 mm
10:45 PM 33.1°F0.6°C 37.6°F3.1°C 86% Calm Calm -- 29.91 in1012.9 mb 0.00 in0.0 mm 0.00 in0.0 mm 0.64 in16.3 mm
10:48 PM 33.0°F0.6°C 37.4°F3.0°C 86% Calm Calm -- 29.91 in1012.9 mb 0.00 in0.0 mm 0.00 in0.0 mm 0.64 in16.3 mm
10:51 PM 32.9°F0.5°C 37.8°F3.2°C 86% Calm Calm -- 29.92 in1013.2 mb 0.00 in0.0 mm 0.00 in0.0 mm 0.64 in16.3 mm
10:54 PM 32.8°F0.4°C 37.8°F3.2°C 86% Calm Calm -- 29.92 in1013.2 mb 0.00 in0.0 mm 0.00 in0.0 mm 0.64 in16.3 mm
10:57 PM 33.0°F0.6°C 37.6°F3.1°C 86% Calm Calm -- 29.93 in1013.5 mb 0.00 in0.0 mm 0.00 in0.0 mm 0.64 in16.3 mm
11:00 PM 33.1°F0.6°C 37.4°F3.0°C 86% Calm Calm -- 29.93 in1013.5 mb 0.00 in0.0 mm 0.00 in0.0 mm 0.64 in16.3 mm
11:03 PM 33.4°F0.8°C 37.7°F3.2°C 86% Calm Calm -- 29.93 in1013.5 mb 0.00 in0.0 mm 0.00 in0.0 mm 0.64 in16.3 mm
11:06 PM 33.5°F0.8°C 37.6°F3.1°C 86% 0.4 mph NNW0.6 kmh NNW 0.4 mph0.6 kmh 29.93 in1013.5 mb 0.00 in0.0 mm 0.00 in0.0 mm 0.64 in16.3 mm
11:09 PM 33.6°F0.9°C 37.4°F3.0°C 85% Calm Calm -- 29.93 in1013.5 mb 0.00 in0.0 mm 0.00 in0.0 mm 0.64 in16.3 mm
11:12 PM 33.7°F0.9°C 37.5°F3.1°C 86% 0.8 mph WNW1.3 kmh WNW 0.8 mph1.3 kmh 29.93 in1013.5 mb 0.00 in0.0 mm 0.00 in0.0 mm 0.64 in16.3 mm
11:15 PM 33.8°F1.0°C 37.2°F2.9°C 86% 3.2 mph NW5.1 kmh NW 3.2 mph5.1 kmh 29.93 in1013.5 mb 0.00 in0.0 mm 0.00 in0.0 mm 0.64 in16.3 mm
11:18 PM 33.9°F1.1°C 37.2°F2.9°C 86% 2.8 mph NW4.5 kmh NW 2.8 mph4.5 kmh 29.93 in1013.5 mb 0.00 in0.0 mm 0.00 in0.0 mm 0.64 in16.3 mm
11:21 PM 33.9°F1.1°C 37.7°F3.2°C 87% 1.2 mph NNW1.9 kmh NNW 1.2 mph1.9 kmh 29.93 in1013.5 mb 0.00 in0.0 mm 0.00 in0.0 mm 0.64 in16.3 mm
11:24 PM 33.9°F1.1°C 37.3°F2.9°C 86% 1.6 mph NW2.6 kmh NW 1.6 mph2.6 kmh 29.93 in1013.5 mb 0.00 in0.0 mm 0.00 in0.0 mm 0.64 in16.3 mm
11:27 PM 33.9°F1.1°C 37.5°F3.1°C 87% 0.4 mph NW0.6 kmh NW 0.4 mph0.6 kmh 29.93 in1013.5 mb 0.00 in0.0 mm 0.00 in0.0 mm 0.64 in16.3 mm
11:30 PM 33.8°F1.0°C 37.7°F3.2°C 86% Calm Calm -- 29.93 in1013.5 mb 0.00 in0.0 mm 0.00 in0.0 mm 0.64 in16.3 mm
11:33 PM 33.7°F0.9°C 37.7°F3.2°C 87% 0.4 mph NW0.6 kmh NW 0.4 mph0.6 kmh 29.93 in1013.5 mb 0.00 in0.0 mm 0.00 in0.0 mm 0.64 in16.3 mm
11:36 PM 33.7°F0.9°C 37.7°F3.2°C 87% Calm Calm -- 29.93 in1013.5 mb 0.00 in0.0 mm 0.00 in0.0 mm 0.64 in16.3 mm
11:39 PM 33.2°F0.7°C 37.5°F3.1°C 86% Calm Calm -- 29.93 in1013.5 mb 0.00 in0.0 mm 0.00 in0.0 mm 0.64 in16.3 mm
11:42 PM 32.9°F0.5°C 37.4°F3.0°C 86% Calm Calm -- 29.93 in1013.5 mb 0.00 in0.0 mm 0.00 in0.0 mm 0.64 in16.3 mm
11:45 PM 33.0°F0.6°C 37.6°F3.1°C 86% Calm Calm -- 29.93 in1013.5 mb 0.00 in0.0 mm 0.00 in0.0 mm 0.64 in16.3 mm
11:48 PM 33.2°F0.7°C 37.6°F3.1°C 87% 2.0 mph NW3.2 kmh NW 2.0 mph3.2 kmh 29.93 in1013.5 mb 0.00 in0.0 mm 0.00 in0.0 mm 0.64 in16.3 mm
11:51 PM 33.4°F0.8°C 37.5°F3.1°C 87% 2.0 mph NW3.2 kmh NW 2.0 mph3.2 kmh 29.93 in1013.5 mb 0.00 in0.0 mm 0.00 in0.0 mm 0.64 in16.3 mm
11:54 PM 33.5°F0.8°C 37.5°F3.1°C 87% 1.2 mph NW1.9 kmh NW 1.2 mph1.9 kmh 29.93 in1013.5 mb 0.00 in0.0 mm 0.00 in0.0 mm 0.64 in16.3 mm
11:57 PM 33.7°F0.9°C 37.6°F3.1°C 87% 2.4 mph NNW3.9 kmh NNW 2.4 mph3.9 kmh 29.93 in1013.5 mb 0.00 in0.0 mm 0.00 in0.0 mm 0.64 in16.3 mm